<?xml version="1.0" encoding="UTF-8" standalone="no" ?>
<gpx xmlns="http://www.topografix.com/GPX/1/1" xmlns:xsi="http://www.w3.org/2001/XMLSchema-instance" xsi:schemaLocation="http://www.topografix.com/GPX/1/1 http://www.topografix.com/GPX/1/1/gpx.xsd" version="1.1" creator="VisuGPX - https://www.visugpx.com">
  <metadata>
    <name>Mancioux 31</name>
    <desc><![CDATA[rando du 22/01/2015]]></desc>
  </metadata>
  <trk>
    <name><![CDATA[Tracé actuel: 22 JAN 2015 09:45]]></name>
    <trkseg>
      <trkpt lat="43.15767" lon="0.95264">
        <ele>283.25</ele>
        <time>2015-01-22T08:45:33Z</time>
      </trkpt>
      <trkpt lat="43.15766" lon="0.95264">
        <ele>283.25</ele>
        <time>2015-01-22T08:45:34Z</time>
      </trkpt>
      <trkpt lat="43.15768" lon="0.95263">
        <ele>286.13</ele>
        <time>2015-01-22T08:45:54Z</time>
      </trkpt>
      <trkpt lat="43.15766" lon="0.95266">
        <ele>288.05</ele>
        <time>2015-01-22T08:46:14Z</time>
      </trkpt>
      <trkpt lat="43.15766" lon="0.95267">
        <ele>289.97</ele>
        <time>2015-01-22T08:46:38Z</time>
      </trkpt>
      <trkpt lat="43.15765" lon="0.95267">
        <ele>291.42</ele>
        <time>2015-01-22T08:47:04Z</time>
      </trkpt>
      <trkpt lat="43.15767" lon="0.95267">
        <ele>292.86</ele>
        <time>2015-01-22T08:47:25Z</time>
      </trkpt>
      <trkpt lat="43.1577" lon="0.95266">
        <ele>292.86</ele>
        <time>2015-01-22T08:47:50Z</time>
      </trkpt>
      <trkpt lat="43.1577" lon="0.95267">
        <ele>292.86</ele>
        <time>2015-01-22T08:48:21Z</time>
      </trkpt>
      <trkpt lat="43.15773" lon="0.95266">
        <ele>292.86</ele>
        <time>2015-01-22T08:48:39Z</time>
      </trkpt>
      <trkpt lat="43.15779" lon="0.95253">
        <ele>292.86</ele>
        <time>2015-01-22T08:48:49Z</time>
      </trkpt>
      <trkpt lat="43.1578" lon="0.95242">
        <ele>292.86</ele>
        <time>2015-01-22T08:48:56Z</time>
      </trkpt>
      <trkpt lat="43.15784" lon="0.95215">
        <ele>293.82</ele>
        <time>2015-01-22T08:49:14Z</time>
      </trkpt>
      <trkpt lat="43.15791" lon="0.95186">
        <ele>294.3</ele>
        <time>2015-01-22T08:49:32Z</time>
      </trkpt>
      <trkpt lat="43.15792" lon="0.95167">
        <ele>294.78</ele>
        <time>2015-01-22T08:49:45Z</time>
      </trkpt>
      <trkpt lat="43.15797" lon="0.95145">
        <ele>295.26</ele>
        <time>2015-01-22T08:49:59Z</time>
      </trkpt>
      <trkpt lat="43.15799" lon="0.95131">
        <ele>296.7</ele>
        <time>2015-01-22T08:50:07Z</time>
      </trkpt>
      <trkpt lat="43.15805" lon="0.95108">
        <ele>298.63</ele>
        <time>2015-01-22T08:50:22Z</time>
      </trkpt>
      <trkpt lat="43.15815" lon="0.95106">
        <ele>298.15</ele>
        <time>2015-01-22T08:50:35Z</time>
      </trkpt>
      <trkpt lat="43.15816" lon="0.95106">
        <ele>298.15</ele>
        <time>2015-01-22T08:50:36Z</time>
      </trkpt>
      <trkpt lat="43.15842" lon="0.95113">
        <ele>298.15</ele>
        <time>2015-01-22T08:50:59Z</time>
      </trkpt>
      <trkpt lat="43.15846" lon="0.95114">
        <ele>298.15</ele>
        <time>2015-01-22T08:51:03Z</time>
      </trkpt>
      <trkpt lat="43.15868" lon="0.95121">
        <ele>297.18</ele>
        <time>2015-01-22T08:51:21Z</time>
      </trkpt>
      <trkpt lat="43.15873" lon="0.95126">
        <ele>296.7</ele>
        <time>2015-01-22T08:51:26Z</time>
      </trkpt>
      <trkpt lat="43.15892" lon="0.95143">
        <ele>295.74</ele>
        <time>2015-01-22T08:51:44Z</time>
      </trkpt>
      <trkpt lat="43.15907" lon="0.9516">
        <ele>292.38</ele>
        <time>2015-01-22T08:52:00Z</time>
      </trkpt>
      <trkpt lat="43.1592" lon="0.95184">
        <ele>289.49</ele>
        <time>2015-01-22T08:52:19Z</time>
      </trkpt>
      <trkpt lat="43.15922" lon="0.95186">
        <ele>289.49</ele>
        <time>2015-01-22T08:52:21Z</time>
      </trkpt>
      <trkpt lat="43.15933" lon="0.95208">
        <ele>287.57</ele>
        <time>2015-01-22T08:52:37Z</time>
      </trkpt>
      <trkpt lat="43.15949" lon="0.95235">
        <ele>286.13</ele>
        <time>2015-01-22T08:52:57Z</time>
      </trkpt>
      <trkpt lat="43.15968" lon="0.95256">
        <ele>284.69</ele>
        <time>2015-01-22T08:53:16Z</time>
      </trkpt>
      <trkpt lat="43.15986" lon="0.95269">
        <ele>283.73</ele>
        <time>2015-01-22T08:53:32Z</time>
      </trkpt>
      <trkpt lat="43.16003" lon="0.95277">
        <ele>283.25</ele>
        <time>2015-01-22T08:53:48Z</time>
      </trkpt>
      <trkpt lat="43.16012" lon="0.95284">
        <ele>283.25</ele>
        <time>2015-01-22T08:54:02Z</time>
      </trkpt>
      <trkpt lat="43.16026" lon="0.95292">
        <ele>282.77</ele>
        <time>2015-01-22T08:54:18Z</time>
      </trkpt>
      <trkpt lat="43.16029" lon="0.953">
        <ele>281.32</ele>
        <time>2015-01-22T08:54:36Z</time>
      </trkpt>
      <trkpt lat="43.16027" lon="0.95307">
        <ele>280.84</ele>
        <time>2015-01-22T08:54:49Z</time>
      </trkpt>
      <trkpt lat="43.16028" lon="0.95309">
        <ele>280.84</ele>
        <time>2015-01-22T08:55:12Z</time>
      </trkpt>
      <trkpt lat="43.16027" lon="0.9531">
        <ele>280.36</ele>
        <time>2015-01-22T08:55:46Z</time>
      </trkpt>
      <trkpt lat="43.16027" lon="0.95307">
        <ele>280.36</ele>
        <time>2015-01-22T08:56:15Z</time>
      </trkpt>
      <trkpt lat="43.16027" lon="0.95311">
        <ele>279.88</ele>
        <time>2015-01-22T08:56:35Z</time>
      </trkpt>
      <trkpt lat="43.16026" lon="0.95317">
        <ele>279.88</ele>
        <time>2015-01-22T08:56:58Z</time>
      </trkpt>
      <trkpt lat="43.16024" lon="0.95317">
        <ele>279.4</ele>
        <time>2015-01-22T08:57:27Z</time>
      </trkpt>
      <trkpt lat="43.16024" lon="0.95313">
        <ele>279.4</ele>
        <time>2015-01-22T08:57:48Z</time>
      </trkpt>
      <trkpt lat="43.16028" lon="0.95308">
        <ele>279.4</ele>
        <time>2015-01-22T08:58:04Z</time>
      </trkpt>
      <trkpt lat="43.1603" lon="0.95295">
        <ele>280.84</ele>
        <time>2015-01-22T08:58:13Z</time>
      </trkpt>
      <trkpt lat="43.1603" lon="0.95287">
        <ele>280.84</ele>
        <time>2015-01-22T08:58:18Z</time>
      </trkpt>
      <trkpt lat="43.16041" lon="0.95268">
        <ele>281.8</ele>
        <time>2015-01-22T08:58:34Z</time>
      </trkpt>
      <trkpt lat="43.16058" lon="0.95247">
        <ele>284.69</ele>
        <time>2015-01-22T08:58:54Z</time>
      </trkpt>
      <trkpt lat="43.1607" lon="0.95236">
        <ele>286.61</ele>
        <time>2015-01-22T08:59:12Z</time>
      </trkpt>
      <trkpt lat="43.1607" lon="0.95239">
        <ele>287.09</ele>
        <time>2015-01-22T08:59:23Z</time>
      </trkpt>
      <trkpt lat="43.16068" lon="0.95247">
        <ele>287.09</ele>
        <time>2015-01-22T08:59:38Z</time>
      </trkpt>
      <trkpt lat="43.16069" lon="0.95252">
        <ele>287.57</ele>
        <time>2015-01-22T08:59:57Z</time>
      </trkpt>
      <trkpt lat="43.16073" lon="0.95245">
        <ele>287.57</ele>
        <time>2015-01-22T09:00:21Z</time>
      </trkpt>
      <trkpt lat="43.16087" lon="0.95225">
        <ele>289.49</ele>
        <time>2015-01-22T09:00:39Z</time>
      </trkpt>
      <trkpt lat="43.16099" lon="0.95212">
        <ele>292.86</ele>
        <time>2015-01-22T09:00:56Z</time>
      </trkpt>
      <trkpt lat="43.16103" lon="0.95189">
        <ele>296.22</ele>
        <time>2015-01-22T09:01:17Z</time>
      </trkpt>
      <trkpt lat="43.16105" lon="0.9517">
        <ele>299.11</ele>
        <time>2015-01-22T09:01:34Z</time>
      </trkpt>
      <trkpt lat="43.16108" lon="0.95165">
        <ele>300.55</ele>
        <time>2015-01-22T09:01:52Z</time>
      </trkpt>
      <trkpt lat="43.16119" lon="0.95165">
        <ele>302.47</ele>
        <time>2015-01-22T09:02:10Z</time>
      </trkpt>
      <trkpt lat="43.16123" lon="0.95168">
        <ele>303.43</ele>
        <time>2015-01-22T09:02:29Z</time>
      </trkpt>
      <trkpt lat="43.16123" lon="0.95168">
        <ele>303.43</ele>
        <time>2015-01-22T09:02:58Z</time>
      </trkpt>
      <trkpt lat="43.16132" lon="0.95174">
        <ele>305.36</ele>
        <time>2015-01-22T09:03:14Z</time>
      </trkpt>
      <trkpt lat="43.16142" lon="0.95184">
        <ele>306.8</ele>
        <time>2015-01-22T09:03:29Z</time>
      </trkpt>
      <trkpt lat="43.16146" lon="0.95188">
        <ele>307.76</ele>
        <time>2015-01-22T09:03:49Z</time>
      </trkpt>
      <trkpt lat="43.16148" lon="0.95193">
        <ele>307.76</ele>
        <time>2015-01-22T09:04:13Z</time>
      </trkpt>
      <trkpt lat="43.16153" lon="0.95192">
        <ele>307.76</ele>
        <time>2015-01-22T09:04:47Z</time>
      </trkpt>
      <trkpt lat="43.16153" lon="0.9519">
        <ele>306.32</ele>
        <time>2015-01-22T09:05:18Z</time>
      </trkpt>
      <trkpt lat="43.16153" lon="0.95192">
        <ele>306.32</ele>
        <time>2015-01-22T09:05:42Z</time>
      </trkpt>
      <trkpt lat="43.16156" lon="0.95197">
        <ele>306.32</ele>
        <time>2015-01-22T09:06:00Z</time>
      </trkpt>
      <trkpt lat="43.16162" lon="0.95204">
        <ele>306.32</ele>
        <time>2015-01-22T09:06:20Z</time>
      </trkpt>
      <trkpt lat="43.16149" lon="0.95188">
        <ele>305.84</ele>
        <time>2015-01-22T09:06:40Z</time>
      </trkpt>
      <trkpt lat="43.16129" lon="0.95172">
        <ele>302.95</ele>
        <time>2015-01-22T09:07:00Z</time>
      </trkpt>
      <trkpt lat="43.16126" lon="0.95169">
        <ele>302.47</ele>
        <time>2015-01-22T09:07:02Z</time>
      </trkpt>
      <trkpt lat="43.16112" lon="0.95158">
        <ele>300.07</ele>
        <time>2015-01-22T09:07:15Z</time>
      </trkpt>
      <trkpt lat="43.16102" lon="0.95175">
        <ele>296.7</ele>
        <time>2015-01-22T09:07:30Z</time>
      </trkpt>
      <trkpt lat="43.16099" lon="0.95191">
        <ele>294.3</ele>
        <time>2015-01-22T09:07:44Z</time>
      </trkpt>
      <trkpt lat="43.16097" lon="0.95206">
        <ele>291.9</ele>
        <time>2015-01-22T09:08:01Z</time>
      </trkpt>
      <trkpt lat="43.16094" lon="0.95213">
        <ele>289.97</ele>
        <time>2015-01-22T09:08:07Z</time>
      </trkpt>
      <trkpt lat="43.16093" lon="0.95215">
        <ele>290.46</ele>
        <time>2015-01-22T09:08:09Z</time>
      </trkpt>
      <trkpt lat="43.1608" lon="0.95227">
        <ele>286.61</ele>
        <time>2015-01-22T09:08:24Z</time>
      </trkpt>
      <trkpt lat="43.16076" lon="0.9523">
        <ele>286.13</ele>
        <time>2015-01-22T09:08:28Z</time>
      </trkpt>
      <trkpt lat="43.16074" lon="0.95229">
        <ele>285.65</ele>
        <time>2015-01-22T09:08:30Z</time>
      </trkpt>
      <trkpt lat="43.16071" lon="0.95223">
        <ele>284.69</ele>
        <time>2015-01-22T09:08:35Z</time>
      </trkpt>
      <trkpt lat="43.16076" lon="0.95203">
        <ele>284.21</ele>
        <time>2015-01-22T09:08:50Z</time>
      </trkpt>
      <trkpt lat="43.16081" lon="0.95183">
        <ele>284.21</ele>
        <time>2015-01-22T09:09:03Z</time>
      </trkpt>
      <trkpt lat="43.16084" lon="0.95175">
        <ele>284.21</ele>
        <time>2015-01-22T09:09:18Z</time>
      </trkpt>
      <trkpt lat="43.16088" lon="0.95153">
        <ele>283.73</ele>
        <time>2015-01-22T09:09:36Z</time>
      </trkpt>
      <trkpt lat="43.16091" lon="0.95131">
        <ele>283.25</ele>
        <time>2015-01-22T09:09:51Z</time>
      </trkpt>
      <trkpt lat="43.16091" lon="0.95115">
        <ele>283.25</ele>
        <time>2015-01-22T09:10:02Z</time>
      </trkpt>
      <trkpt lat="43.16086" lon="0.95096">
        <ele>283.25</ele>
        <time>2015-01-22T09:10:11Z</time>
      </trkpt>
      <trkpt lat="43.16083" lon="0.95086">
        <ele>284.21</ele>
        <time>2015-01-22T09:10:17Z</time>
      </trkpt>
      <trkpt lat="43.16079" lon="0.95057">
        <ele>285.17</ele>
        <time>2015-01-22T09:10:34Z</time>
      </trkpt>
      <trkpt lat="43.1608" lon="0.95043">
        <ele>285.17</ele>
        <time>2015-01-22T09:10:50Z</time>
      </trkpt>
      <trkpt lat="43.16083" lon="0.95039">
        <ele>284.69</ele>
        <time>2015-01-22T09:11:13Z</time>
      </trkpt>
      <trkpt lat="43.1608" lon="0.95039">
        <ele>284.69</ele>
        <time>2015-01-22T09:11:42Z</time>
      </trkpt>
      <trkpt lat="43.16082" lon="0.95036">
        <ele>284.69</ele>
        <time>2015-01-22T09:11:58Z</time>
      </trkpt>
      <trkpt lat="43.16078" lon="0.9504">
        <ele>284.69</ele>
        <time>2015-01-22T09:12:27Z</time>
      </trkpt>
      <trkpt lat="43.16076" lon="0.9504">
        <ele>284.69</ele>
        <time>2015-01-22T09:12:45Z</time>
      </trkpt>
      <trkpt lat="43.16076" lon="0.95039">
        <ele>284.21</ele>
        <time>2015-01-22T09:13:18Z</time>
      </trkpt>
      <trkpt lat="43.16076" lon="0.95029">
        <ele>284.21</ele>
        <time>2015-01-22T09:13:45Z</time>
      </trkpt>
      <trkpt lat="43.16082" lon="0.94999">
        <ele>284.21</ele>
        <time>2015-01-22T09:14:04Z</time>
      </trkpt>
      <trkpt lat="43.16086" lon="0.94977">
        <ele>285.65</ele>
        <time>2015-01-22T09:14:19Z</time>
      </trkpt>
      <trkpt lat="43.16092" lon="0.94958">
        <ele>286.61</ele>
        <time>2015-01-22T09:14:35Z</time>
      </trkpt>
      <trkpt lat="43.16103" lon="0.94933">
        <ele>287.57</ele>
        <time>2015-01-22T09:14:52Z</time>
      </trkpt>
      <trkpt lat="43.16107" lon="0.94911">
        <ele>287.09</ele>
        <time>2015-01-22T09:15:07Z</time>
      </trkpt>
      <trkpt lat="43.16107" lon="0.94902">
        <ele>287.09</ele>
        <time>2015-01-22T09:15:12Z</time>
      </trkpt>
      <trkpt lat="43.16105" lon="0.94873">
        <ele>287.57</ele>
        <time>2015-01-22T09:15:30Z</time>
      </trkpt>
      <trkpt lat="43.16103" lon="0.94844">
        <ele>287.57</ele>
        <time>2015-01-22T09:15:47Z</time>
      </trkpt>
      <trkpt lat="43.161" lon="0.94833">
        <ele>287.57</ele>
        <time>2015-01-22T09:15:54Z</time>
      </trkpt>
      <trkpt lat="43.16098" lon="0.94826">
        <ele>286.13</ele>
        <time>2015-01-22T09:15:58Z</time>
      </trkpt>
      <trkpt lat="43.16087" lon="0.94804">
        <ele>285.65</ele>
        <time>2015-01-22T09:16:13Z</time>
      </trkpt>
      <trkpt lat="43.16079" lon="0.9478">
        <ele>286.13</ele>
        <time>2015-01-22T09:16:29Z</time>
      </trkpt>
      <trkpt lat="43.16077" lon="0.94772">
        <ele>285.65</ele>
        <time>2015-01-22T09:16:35Z</time>
      </trkpt>
      <trkpt lat="43.16075" lon="0.94764">
        <ele>286.13</ele>
        <time>2015-01-22T09:16:40Z</time>
      </trkpt>
      <trkpt lat="43.16074" lon="0.94759">
        <ele>286.13</ele>
        <time>2015-01-22T09:16:43Z</time>
      </trkpt>
      <trkpt lat="43.16073" lon="0.94753">
        <ele>287.09</ele>
        <time>2015-01-22T09:16:46Z</time>
      </trkpt>
      <trkpt lat="43.16067" lon="0.94738">
        <ele>288.05</ele>
        <time>2015-01-22T09:16:58Z</time>
      </trkpt>
      <trkpt lat="43.16062" lon="0.94731">
        <ele>289.01</ele>
        <time>2015-01-22T09:17:04Z</time>
      </trkpt>
      <trkpt lat="43.16047" lon="0.94716">
        <ele>289.01</ele>
        <time>2015-01-22T09:17:20Z</time>
      </trkpt>
      <trkpt lat="43.16033" lon="0.94701">
        <ele>289.01</ele>
        <time>2015-01-22T09:17:36Z</time>
      </trkpt>
      <trkpt lat="43.16032" lon="0.94699">
        <ele>289.01</ele>
        <time>2015-01-22T09:17:37Z</time>
      </trkpt>
      <trkpt lat="43.16025" lon="0.94674">
        <ele>289.01</ele>
        <time>2015-01-22T09:17:53Z</time>
      </trkpt>
      <trkpt lat="43.16015" lon="0.94657">
        <ele>289.97</ele>
        <time>2015-01-22T09:18:09Z</time>
      </trkpt>
      <trkpt lat="43.16009" lon="0.94646">
        <ele>291.42</ele>
        <time>2015-01-22T09:18:19Z</time>
      </trkpt>
      <trkpt lat="43.16003" lon="0.94638">
        <ele>291.9</ele>
        <time>2015-01-22T09:18:26Z</time>
      </trkpt>
      <trkpt lat="43.16001" lon="0.94632">
        <ele>292.38</ele>
        <time>2015-01-22T09:18:30Z</time>
      </trkpt>
      <trkpt lat="43.15993" lon="0.94609">
        <ele>292.86</ele>
        <time>2015-01-22T09:18:47Z</time>
      </trkpt>
      <trkpt lat="43.15983" lon="0.94585">
        <ele>293.34</ele>
        <time>2015-01-22T09:19:04Z</time>
      </trkpt>
      <trkpt lat="43.15975" lon="0.94569">
        <ele>293.34</ele>
        <time>2015-01-22T09:19:19Z</time>
      </trkpt>
      <trkpt lat="43.15959" lon="0.9455">
        <ele>293.34</ele>
        <time>2015-01-22T09:19:36Z</time>
      </trkpt>
      <trkpt lat="43.15954" lon="0.94544">
        <ele>292.38</ele>
        <time>2015-01-22T09:19:43Z</time>
      </trkpt>
      <trkpt lat="43.15951" lon="0.94541">
        <ele>292.38</ele>
        <time>2015-01-22T09:20:00Z</time>
      </trkpt>
      <trkpt lat="43.1595" lon="0.94541">
        <ele>291.9</ele>
        <time>2015-01-22T09:20:23Z</time>
      </trkpt>
      <trkpt lat="43.15947" lon="0.94538">
        <ele>291.42</ele>
        <time>2015-01-22T09:20:35Z</time>
      </trkpt>
      <trkpt lat="43.15936" lon="0.94525">
        <ele>291.42</ele>
        <time>2015-01-22T09:20:52Z</time>
      </trkpt>
      <trkpt lat="43.15921" lon="0.94511">
        <ele>291.42</ele>
        <time>2015-01-22T09:21:07Z</time>
      </trkpt>
      <trkpt lat="43.15914" lon="0.94502">
        <ele>291.42</ele>
        <time>2015-01-22T09:21:20Z</time>
      </trkpt>
      <trkpt lat="43.15911" lon="0.94499">
        <ele>291.42</ele>
        <time>2015-01-22T09:21:38Z</time>
      </trkpt>
      <trkpt lat="43.15907" lon="0.94494">
        <ele>291.42</ele>
        <time>2015-01-22T09:22:09Z</time>
      </trkpt>
      <trkpt lat="43.15911" lon="0.94492">
        <ele>291.9</ele>
        <time>2015-01-22T09:22:22Z</time>
      </trkpt>
      <trkpt lat="43.15926" lon="0.94467">
        <ele>293.82</ele>
        <time>2015-01-22T09:22:41Z</time>
      </trkpt>
      <trkpt lat="43.15937" lon="0.94446">
        <ele>294.78</ele>
        <time>2015-01-22T09:22:57Z</time>
      </trkpt>
      <trkpt lat="43.15945" lon="0.94433">
        <ele>295.74</ele>
        <time>2015-01-22T09:23:09Z</time>
      </trkpt>
      <trkpt lat="43.15946" lon="0.9443">
        <ele>293.82</ele>
        <time>2015-01-22T09:23:11Z</time>
      </trkpt>
      <trkpt lat="43.15946" lon="0.94429">
        <ele>298.15</ele>
        <time>2015-01-22T09:23:12Z</time>
      </trkpt>
      <trkpt lat="43.15947" lon="0.94427">
        <ele>298.15</ele>
        <time>2015-01-22T09:23:14Z</time>
      </trkpt>
      <trkpt lat="43.15959" lon="0.94411">
        <ele>297.67</ele>
        <time>2015-01-22T09:23:28Z</time>
      </trkpt>
      <trkpt lat="43.15975" lon="0.94397">
        <ele>299.59</ele>
        <time>2015-01-22T09:23:45Z</time>
      </trkpt>
      <trkpt lat="43.15981" lon="0.94392">
        <ele>301.03</ele>
        <time>2015-01-22T09:23:52Z</time>
      </trkpt>
      <trkpt lat="43.15998" lon="0.94379">
        <ele>304.88</ele>
        <time>2015-01-22T09:24:10Z</time>
      </trkpt>
      <trkpt lat="43.16004" lon="0.94374">
        <ele>304.88</ele>
        <time>2015-01-22T09:24:19Z</time>
      </trkpt>
      <trkpt lat="43.16011" lon="0.94367">
        <ele>307.28</ele>
        <time>2015-01-22T09:24:27Z</time>
      </trkpt>
      <trkpt lat="43.16012" lon="0.94366">
        <ele>307.28</ele>
        <time>2015-01-22T09:24:29Z</time>
      </trkpt>
      <trkpt lat="43.16015" lon="0.94362">
        <ele>306.8</ele>
        <time>2015-01-22T09:24:34Z</time>
      </trkpt>
      <trkpt lat="43.1602" lon="0.94359">
        <ele>307.76</ele>
        <time>2015-01-22T09:24:46Z</time>
      </trkpt>
      <trkpt lat="43.16021" lon="0.94357">
        <ele>308.72</ele>
        <time>2015-01-22T09:24:48Z</time>
      </trkpt>
      <trkpt lat="43.1603" lon="0.94351">
        <ele>310.64</ele>
        <time>2015-01-22T09:25:01Z</time>
      </trkpt>
      <trkpt lat="43.16039" lon="0.94342">
        <ele>312.57</ele>
        <time>2015-01-22T09:25:10Z</time>
      </trkpt>
      <trkpt lat="43.16046" lon="0.94335">
        <ele>314.49</ele>
        <time>2015-01-22T09:25:19Z</time>
      </trkpt>
      <trkpt lat="43.16047" lon="0.94334">
        <ele>314.49</ele>
        <time>2015-01-22T09:25:20Z</time>
      </trkpt>
      <trkpt lat="43.16048" lon="0.94333">
        <ele>314.97</ele>
        <time>2015-01-22T09:25:21Z</time>
      </trkpt>
      <trkpt lat="43.1605" lon="0.94332">
        <ele>314.97</ele>
        <time>2015-01-22T09:25:25Z</time>
      </trkpt>
      <trkpt lat="43.16052" lon="0.94331">
        <ele>314.97</ele>
        <time>2015-01-22T09:25:26Z</time>
      </trkpt>
      <trkpt lat="43.16058" lon="0.94328">
        <ele>316.89</ele>
        <time>2015-01-22T09:25:34Z</time>
      </trkpt>
      <trkpt lat="43.16061" lon="0.94326">
        <ele>316.89</ele>
        <time>2015-01-22T09:25:37Z</time>
      </trkpt>
      <trkpt lat="43.16069" lon="0.94321">
        <ele>318.33</ele>
        <time>2015-01-22T09:25:48Z</time>
      </trkpt>
      <trkpt lat="43.16079" lon="0.94316">
        <ele>320.74</ele>
        <time>2015-01-22T09:26:01Z</time>
      </trkpt>
      <trkpt lat="43.16086" lon="0.94312">
        <ele>321.7</ele>
        <time>2015-01-22T09:26:14Z</time>
      </trkpt>
      <trkpt lat="43.16087" lon="0.94311">
        <ele>322.18</ele>
        <time>2015-01-22T09:26:16Z</time>
      </trkpt>
      <trkpt lat="43.16088" lon="0.9431">
        <ele>322.66</ele>
        <time>2015-01-22T09:26:17Z</time>
      </trkpt>
      <trkpt lat="43.16095" lon="0.94307">
        <ele>324.1</ele>
        <time>2015-01-22T09:26:27Z</time>
      </trkpt>
      <trkpt lat="43.16096" lon="0.94307">
        <ele>324.1</ele>
        <time>2015-01-22T09:26:28Z</time>
      </trkpt>
      <trkpt lat="43.16101" lon="0.94302">
        <ele>325.54</ele>
        <time>2015-01-22T09:26:35Z</time>
      </trkpt>
      <trkpt lat="43.16107" lon="0.94296">
        <ele>327.47</ele>
        <time>2015-01-22T09:26:47Z</time>
      </trkpt>
      <trkpt lat="43.16107" lon="0.94295">
        <ele>327.47</ele>
        <time>2015-01-22T09:26:48Z</time>
      </trkpt>
      <trkpt lat="43.16115" lon="0.94286">
        <ele>329.87</ele>
        <time>2015-01-22T09:27:00Z</time>
      </trkpt>
      <trkpt lat="43.16119" lon="0.9428">
        <ele>331.79</ele>
        <time>2015-01-22T09:27:11Z</time>
      </trkpt>
      <trkpt lat="43.16119" lon="0.9428">
        <ele>331.79</ele>
        <time>2015-01-22T09:27:12Z</time>
      </trkpt>
      <trkpt lat="43.16122" lon="0.94272">
        <ele>330.35</ele>
        <time>2015-01-22T09:27:37Z</time>
      </trkpt>
      <trkpt lat="43.16124" lon="0.94271">
        <ele>330.83</ele>
        <time>2015-01-22T09:28:01Z</time>
      </trkpt>
      <trkpt lat="43.16125" lon="0.94269">
        <ele>330.83</ele>
        <time>2015-01-22T09:28:19Z</time>
      </trkpt>
      <trkpt lat="43.16126" lon="0.94267">
        <ele>332.27</ele>
        <time>2015-01-22T09:28:25Z</time>
      </trkpt>
      <trkpt lat="43.16127" lon="0.94268">
        <ele>331.31</ele>
        <time>2015-01-22T09:28:51Z</time>
      </trkpt>
      <trkpt lat="43.16127" lon="0.94268">
        <ele>332.75</ele>
        <time>2015-01-22T09:29:01Z</time>
      </trkpt>
      <trkpt lat="43.16127" lon="0.94267">
        <ele>331.31</ele>
        <time>2015-01-22T09:29:28Z</time>
      </trkpt>
      <trkpt lat="43.16125" lon="0.94266">
        <ele>331.31</ele>
        <time>2015-01-22T09:29:49Z</time>
      </trkpt>
      <trkpt lat="43.16127" lon="0.94264">
        <ele>331.79</ele>
        <time>2015-01-22T09:30:11Z</time>
      </trkpt>
      <trkpt lat="43.16129" lon="0.94259">
        <ele>332.75</ele>
        <time>2015-01-22T09:30:16Z</time>
      </trkpt>
      <trkpt lat="43.16139" lon="0.94249">
        <ele>333.71</ele>
        <time>2015-01-22T09:30:31Z</time>
      </trkpt>
      <trkpt lat="43.1615" lon="0.9424">
        <ele>336.12</ele>
        <time>2015-01-22T09:30:47Z</time>
      </trkpt>
      <trkpt lat="43.16167" lon="0.9423">
        <ele>338.52</ele>
        <time>2015-01-22T09:31:06Z</time>
      </trkpt>
      <trkpt lat="43.16183" lon="0.9422">
        <ele>340.44</ele>
        <time>2015-01-22T09:31:25Z</time>
      </trkpt>
      <trkpt lat="43.16195" lon="0.94215">
        <ele>342.85</ele>
        <time>2015-01-22T09:31:40Z</time>
      </trkpt>
      <trkpt lat="43.16209" lon="0.94207">
        <ele>344.29</ele>
        <time>2015-01-22T09:31:56Z</time>
      </trkpt>
      <trkpt lat="43.16223" lon="0.942">
        <ele>346.21</ele>
        <time>2015-01-22T09:32:12Z</time>
      </trkpt>
      <trkpt lat="43.16239" lon="0.94194">
        <ele>348.13</ele>
        <time>2015-01-22T09:32:30Z</time>
      </trkpt>
      <trkpt lat="43.16253" lon="0.94189">
        <ele>350.06</ele>
        <time>2015-01-22T09:32:44Z</time>
      </trkpt>
      <trkpt lat="43.16259" lon="0.94186">
        <ele>351.5</ele>
        <time>2015-01-22T09:32:51Z</time>
      </trkpt>
      <trkpt lat="43.1626" lon="0.94185">
        <ele>351.5</ele>
        <time>2015-01-22T09:32:52Z</time>
      </trkpt>
      <trkpt lat="43.16262" lon="0.94184">
        <ele>351.5</ele>
        <time>2015-01-22T09:32:53Z</time>
      </trkpt>
      <trkpt lat="43.16274" lon="0.94178">
        <ele>353.42</ele>
        <time>2015-01-22T09:33:06Z</time>
      </trkpt>
      <trkpt lat="43.16278" lon="0.94176">
        <ele>353.42</ele>
        <time>2015-01-22T09:33:10Z</time>
      </trkpt>
      <trkpt lat="43.16285" lon="0.94171">
        <ele>354.38</ele>
        <time>2015-01-22T09:33:18Z</time>
      </trkpt>
      <trkpt lat="43.16287" lon="0.9417">
        <ele>354.86</ele>
        <time>2015-01-22T09:33:19Z</time>
      </trkpt>
      <trkpt lat="43.16297" lon="0.94161">
        <ele>356.31</ele>
        <time>2015-01-22T09:33:30Z</time>
      </trkpt>
      <trkpt lat="43.16306" lon="0.94154">
        <ele>357.27</ele>
        <time>2015-01-22T09:33:44Z</time>
      </trkpt>
      <trkpt lat="43.16318" lon="0.94144">
        <ele>358.71</ele>
        <time>2015-01-22T09:34:01Z</time>
      </trkpt>
      <trkpt lat="43.1633" lon="0.94134">
        <ele>360.15</ele>
        <time>2015-01-22T09:34:18Z</time>
      </trkpt>
      <trkpt lat="43.16331" lon="0.94133">
        <ele>360.15</ele>
        <time>2015-01-22T09:34:19Z</time>
      </trkpt>
      <trkpt lat="43.16332" lon="0.94133">
        <ele>360.15</ele>
        <time>2015-01-22T09:34:20Z</time>
      </trkpt>
      <trkpt lat="43.16338" lon="0.94128">
        <ele>361.11</ele>
        <time>2015-01-22T09:34:30Z</time>
      </trkpt>
      <trkpt lat="43.16342" lon="0.94125">
        <ele>361.59</ele>
        <time>2015-01-22T09:34:34Z</time>
      </trkpt>
      <trkpt lat="43.1636" lon="0.94112">
        <ele>363.52</ele>
        <time>2015-01-22T09:34:53Z</time>
      </trkpt>
      <trkpt lat="43.16373" lon="0.94102">
        <ele>365.92</ele>
        <time>2015-01-22T09:35:11Z</time>
      </trkpt>
      <trkpt lat="43.16386" lon="0.94091">
        <ele>367.36</ele>
        <time>2015-01-22T09:35:29Z</time>
      </trkpt>
      <trkpt lat="43.16387" lon="0.9409">
        <ele>367.36</ele>
        <time>2015-01-22T09:35:30Z</time>
      </trkpt>
      <trkpt lat="43.1639" lon="0.94088">
        <ele>367.36</ele>
        <time>2015-01-22T09:35:34Z</time>
      </trkpt>
      <trkpt lat="43.16403" lon="0.94079">
        <ele>368.8</ele>
        <time>2015-01-22T09:35:48Z</time>
      </trkpt>
      <trkpt lat="43.16412" lon="0.94071">
        <ele>369.76</ele>
        <time>2015-01-22T09:36:03Z</time>
      </trkpt>
      <trkpt lat="43.16426" lon="0.94061">
        <ele>371.69</ele>
        <time>2015-01-22T09:36:21Z</time>
      </trkpt>
      <trkpt lat="43.16438" lon="0.9405">
        <ele>373.13</ele>
        <time>2015-01-22T09:36:38Z</time>
      </trkpt>
      <trkpt lat="43.16448" lon="0.94041">
        <ele>375.53</ele>
        <time>2015-01-22T09:36:55Z</time>
      </trkpt>
      <trkpt lat="43.16459" lon="0.94032">
        <ele>376.97</ele>
        <time>2015-01-22T09:37:10Z</time>
      </trkpt>
      <trkpt lat="43.16471" lon="0.94023">
        <ele>378.9</ele>
        <time>2015-01-22T09:37:28Z</time>
      </trkpt>
      <trkpt lat="43.16483" lon="0.94013">
        <ele>380.34</ele>
        <time>2015-01-22T09:37:47Z</time>
      </trkpt>
      <trkpt lat="43.16489" lon="0.94004">
        <ele>381.3</ele>
        <time>2015-01-22T09:38:03Z</time>
      </trkpt>
      <trkpt lat="43.16493" lon="0.94">
        <ele>381.78</ele>
        <time>2015-01-22T09:38:14Z</time>
      </trkpt>
      <trkpt lat="43.16493" lon="0.93999">
        <ele>381.78</ele>
        <time>2015-01-22T09:38:31Z</time>
      </trkpt>
      <trkpt lat="43.16505" lon="0.93991">
        <ele>383.22</ele>
        <time>2015-01-22T09:38:46Z</time>
      </trkpt>
      <trkpt lat="43.16523" lon="0.93979">
        <ele>384.18</ele>
        <time>2015-01-22T09:39:04Z</time>
      </trkpt>
      <trkpt lat="43.16529" lon="0.93974">
        <ele>384.66</ele>
        <time>2015-01-22T09:39:17Z</time>
      </trkpt>
      <trkpt lat="43.1654" lon="0.93966">
        <ele>385.15</ele>
        <time>2015-01-22T09:39:31Z</time>
      </trkpt>
      <trkpt lat="43.16546" lon="0.93969">
        <ele>386.59</ele>
        <time>2015-01-22T09:39:40Z</time>
      </trkpt>
      <trkpt lat="43.16548" lon="0.93973">
        <ele>386.59</ele>
        <time>2015-01-22T09:39:44Z</time>
      </trkpt>
      <trkpt lat="43.16548" lon="0.93975">
        <ele>386.59</ele>
        <time>2015-01-22T09:39:45Z</time>
      </trkpt>
      <trkpt lat="43.16554" lon="0.93995">
        <ele>389.47</ele>
        <time>2015-01-22T09:40:02Z</time>
      </trkpt>
      <trkpt lat="43.16557" lon="0.94004">
        <ele>390.91</ele>
        <time>2015-01-22T09:40:12Z</time>
      </trkpt>
      <trkpt lat="43.16557" lon="0.94005">
        <ele>390.91</ele>
        <time>2015-01-22T09:40:13Z</time>
      </trkpt>
      <trkpt lat="43.16558" lon="0.94005">
        <ele>390.91</ele>
        <time>2015-01-22T09:40:14Z</time>
      </trkpt>
      <trkpt lat="43.16558" lon="0.94008">
        <ele>390.91</ele>
        <time>2015-01-22T09:40:16Z</time>
      </trkpt>
      <trkpt lat="43.16561" lon="0.94015">
        <ele>391.87</ele>
        <time>2015-01-22T09:40:22Z</time>
      </trkpt>
      <trkpt lat="43.16561" lon="0.94017">
        <ele>391.87</ele>
        <time>2015-01-22T09:40:23Z</time>
      </trkpt>
      <trkpt lat="43.16562" lon="0.94018">
        <ele>391.87</ele>
        <time>2015-01-22T09:40:24Z</time>
      </trkpt>
      <trkpt lat="43.16562" lon="0.94019">
        <ele>392.36</ele>
        <time>2015-01-22T09:40:25Z</time>
      </trkpt>
      <trkpt lat="43.16563" lon="0.9402">
        <ele>392.36</ele>
        <time>2015-01-22T09:40:26Z</time>
      </trkpt>
      <trkpt lat="43.16565" lon="0.94026">
        <ele>392.84</ele>
        <time>2015-01-22T09:40:31Z</time>
      </trkpt>
      <trkpt lat="43.16572" lon="0.94042">
        <ele>394.28</ele>
        <time>2015-01-22T09:40:45Z</time>
      </trkpt>
      <trkpt lat="43.16579" lon="0.94052">
        <ele>394.76</ele>
        <time>2015-01-22T09:40:55Z</time>
      </trkpt>
      <trkpt lat="43.16579" lon="0.94054">
        <ele>395.24</ele>
        <time>2015-01-22T09:41:04Z</time>
      </trkpt>
      <trkpt lat="43.16581" lon="0.94057">
        <ele>395.24</ele>
        <time>2015-01-22T09:41:17Z</time>
      </trkpt>
      <trkpt lat="43.1659" lon="0.94064">
        <ele>396.2</ele>
        <time>2015-01-22T09:41:34Z</time>
      </trkpt>
      <trkpt lat="43.16591" lon="0.94065">
        <ele>396.68</ele>
        <time>2015-01-22T09:41:35Z</time>
      </trkpt>
      <trkpt lat="43.1661" lon="0.94076">
        <ele>397.16</ele>
        <time>2015-01-22T09:41:56Z</time>
      </trkpt>
      <trkpt lat="43.16625" lon="0.94084">
        <ele>397.64</ele>
        <time>2015-01-22T09:42:13Z</time>
      </trkpt>
      <trkpt lat="43.16643" lon="0.94089">
        <ele>397.64</ele>
        <time>2015-01-22T09:42:30Z</time>
      </trkpt>
      <trkpt lat="43.16658" lon="0.94094">
        <ele>398.12</ele>
        <time>2015-01-22T09:42:46Z</time>
      </trkpt>
      <trkpt lat="43.16675" lon="0.94098">
        <ele>399.08</ele>
        <time>2015-01-22T09:43:03Z</time>
      </trkpt>
      <trkpt lat="43.16689" lon="0.94101">
        <ele>400.05</ele>
        <time>2015-01-22T09:43:20Z</time>
      </trkpt>
      <trkpt lat="43.16697" lon="0.94101">
        <ele>400.05</ele>
        <time>2015-01-22T09:43:27Z</time>
      </trkpt>
      <trkpt lat="43.16703" lon="0.94102">
        <ele>401.97</ele>
        <time>2015-01-22T09:43:32Z</time>
      </trkpt>
      <trkpt lat="43.16705" lon="0.94101">
        <ele>400.53</ele>
        <time>2015-01-22T09:43:34Z</time>
      </trkpt>
      <trkpt lat="43.1671" lon="0.94102">
        <ele>401.97</ele>
        <time>2015-01-22T09:43:39Z</time>
      </trkpt>
      <trkpt lat="43.16723" lon="0.94103">
        <ele>403.41</ele>
        <time>2015-01-22T09:43:54Z</time>
      </trkpt>
      <trkpt lat="43.16739" lon="0.94109">
        <ele>403.89</ele>
        <time>2015-01-22T09:44:12Z</time>
      </trkpt>
      <trkpt lat="43.16751" lon="0.94115">
        <ele>404.37</ele>
        <time>2015-01-22T09:44:29Z</time>
      </trkpt>
      <trkpt lat="43.16745" lon="0.94114">
        <ele>404.37</ele>
        <time>2015-01-22T09:44:43Z</time>
      </trkpt>
      <trkpt lat="43.16744" lon="0.94114">
        <ele>404.37</ele>
        <time>2015-01-22T09:44:44Z</time>
      </trkpt>
      <trkpt lat="43.16739" lon="0.9412">
        <ele>402.93</ele>
        <time>2015-01-22T09:44:52Z</time>
      </trkpt>
      <trkpt lat="43.16739" lon="0.94122">
        <ele>402.45</ele>
        <time>2015-01-22T09:44:54Z</time>
      </trkpt>
      <trkpt lat="43.16738" lon="0.94126">
        <ele>402.45</ele>
        <time>2015-01-22T09:44:57Z</time>
      </trkpt>
      <trkpt lat="43.16738" lon="0.94133">
        <ele>401.01</ele>
        <time>2015-01-22T09:45:12Z</time>
      </trkpt>
      <trkpt lat="43.1674" lon="0.94134">
        <ele>401.01</ele>
        <time>2015-01-22T09:45:28Z</time>
      </trkpt>
      <trkpt lat="43.16746" lon="0.94138">
        <ele>401.01</ele>
        <time>2015-01-22T09:45:34Z</time>
      </trkpt>
      <trkpt lat="43.16763" lon="0.94149">
        <ele>400.53</ele>
        <time>2015-01-22T09:45:50Z</time>
      </trkpt>
      <trkpt lat="43.16775" lon="0.94147">
        <ele>401.01</ele>
        <time>2015-01-22T09:46:04Z</time>
      </trkpt>
      <trkpt lat="43.16782" lon="0.94136">
        <ele>402.45</ele>
        <time>2015-01-22T09:46:17Z</time>
      </trkpt>
      <trkpt lat="43.16783" lon="0.94134">
        <ele>402.45</ele>
        <time>2015-01-22T09:46:19Z</time>
      </trkpt>
      <trkpt lat="43.16795" lon="0.94127">
        <ele>402.45</ele>
        <time>2015-01-22T09:46:36Z</time>
      </trkpt>
      <trkpt lat="43.16796" lon="0.94128">
        <ele>403.41</ele>
        <time>2015-01-22T09:46:46Z</time>
      </trkpt>
      <trkpt lat="43.16796" lon="0.94128">
        <ele>402.93</ele>
        <time>2015-01-22T09:46:48Z</time>
      </trkpt>
      <trkpt lat="43.16798" lon="0.94127">
        <ele>402.45</ele>
        <time>2015-01-22T09:46:58Z</time>
      </trkpt>
      <trkpt lat="43.16802" lon="0.94127">
        <ele>402.45</ele>
        <time>2015-01-22T09:47:01Z</time>
      </trkpt>
      <trkpt lat="43.16822" lon="0.94137">
        <ele>401.97</ele>
        <time>2015-01-22T09:47:17Z</time>
      </trkpt>
      <trkpt lat="43.16841" lon="0.94154">
        <ele>401.49</ele>
        <time>2015-01-22T09:47:34Z</time>
      </trkpt>
      <trkpt lat="43.16861" lon="0.94173">
        <ele>401.49</ele>
        <time>2015-01-22T09:47:53Z</time>
      </trkpt>
      <trkpt lat="43.16883" lon="0.94193">
        <ele>401.01</ele>
        <time>2015-01-22T09:48:11Z</time>
      </trkpt>
      <trkpt lat="43.16905" lon="0.94211">
        <ele>399.08</ele>
        <time>2015-01-22T09:48:30Z</time>
      </trkpt>
      <trkpt lat="43.16919" lon="0.94225">
        <ele>398.12</ele>
        <time>2015-01-22T09:48:46Z</time>
      </trkpt>
      <trkpt lat="43.16923" lon="0.9423">
        <ele>397.16</ele>
        <time>2015-01-22T09:49:02Z</time>
      </trkpt>
      <trkpt lat="43.16923" lon="0.94226">
        <ele>397.16</ele>
        <time>2015-01-22T09:49:34Z</time>
      </trkpt>
      <trkpt lat="43.16926" lon="0.94224">
        <ele>398.12</ele>
        <time>2015-01-22T09:49:42Z</time>
      </trkpt>
      <trkpt lat="43.16929" lon="0.94223">
        <ele>398.12</ele>
        <time>2015-01-22T09:49:44Z</time>
      </trkpt>
      <trkpt lat="43.1693" lon="0.9422">
        <ele>398.12</ele>
        <time>2015-01-22T09:49:46Z</time>
      </trkpt>
      <trkpt lat="43.16932" lon="0.94214">
        <ele>398.12</ele>
        <time>2015-01-22T09:49:50Z</time>
      </trkpt>
      <trkpt lat="43.16934" lon="0.94209">
        <ele>400.05</ele>
        <time>2015-01-22T09:49:53Z</time>
      </trkpt>
      <trkpt lat="43.1694" lon="0.94178">
        <ele>401.49</ele>
        <time>2015-01-22T09:50:11Z</time>
      </trkpt>
      <trkpt lat="43.16944" lon="0.94155">
        <ele>402.93</ele>
        <time>2015-01-22T09:50:25Z</time>
      </trkpt>
      <trkpt lat="43.1695" lon="0.94122">
        <ele>404.85</ele>
        <time>2015-01-22T09:50:44Z</time>
      </trkpt>
      <trkpt lat="43.16957" lon="0.94092">
        <ele>404.85</ele>
        <time>2015-01-22T09:51:00Z</time>
      </trkpt>
      <trkpt lat="43.16951" lon="0.94062">
        <ele>406.29</ele>
        <time>2015-01-22T09:51:17Z</time>
      </trkpt>
      <trkpt lat="43.16951" lon="0.94059">
        <ele>406.77</ele>
        <time>2015-01-22T09:51:34Z</time>
      </trkpt>
      <trkpt lat="43.16944" lon="0.94044">
        <ele>407.74</ele>
        <time>2015-01-22T09:51:49Z</time>
      </trkpt>
      <trkpt lat="43.16943" lon="0.94038">
        <ele>408.22</ele>
        <time>2015-01-22T09:51:54Z</time>
      </trkpt>
      <trkpt lat="43.16945" lon="0.94015">
        <ele>409.66</ele>
        <time>2015-01-22T09:52:10Z</time>
      </trkpt>
      <trkpt lat="43.16946" lon="0.94005">
        <ele>410.14</ele>
        <time>2015-01-22T09:52:21Z</time>
      </trkpt>
      <trkpt lat="43.16947" lon="0.94003">
        <ele>410.14</ele>
        <time>2015-01-22T09:52:23Z</time>
      </trkpt>
      <trkpt lat="43.16948" lon="0.93989">
        <ele>411.58</ele>
        <time>2015-01-22T09:52:40Z</time>
      </trkpt>
      <trkpt lat="43.16948" lon="0.93975">
        <ele>412.06</ele>
        <time>2015-01-22T09:52:55Z</time>
      </trkpt>
      <trkpt lat="43.16954" lon="0.93956">
        <ele>414.47</ele>
        <time>2015-01-22T09:53:14Z</time>
      </trkpt>
      <trkpt lat="43.16958" lon="0.93955">
        <ele>414.47</ele>
        <time>2015-01-22T09:53:45Z</time>
      </trkpt>
      <trkpt lat="43.16956" lon="0.93945">
        <ele>414.47</ele>
        <time>2015-01-22T09:54:00Z</time>
      </trkpt>
      <trkpt lat="43.16958" lon="0.93914">
        <ele>416.87</ele>
        <time>2015-01-22T09:54:20Z</time>
      </trkpt>
      <trkpt lat="43.16957" lon="0.93903">
        <ele>417.83</ele>
        <time>2015-01-22T09:54:27Z</time>
      </trkpt>
      <trkpt lat="43.16958" lon="0.9389">
        <ele>418.31</ele>
        <time>2015-01-22T09:54:35Z</time>
      </trkpt>
      <trkpt lat="43.16965" lon="0.93862">
        <ele>419.75</ele>
        <time>2015-01-22T09:54:52Z</time>
      </trkpt>
      <trkpt lat="43.16976" lon="0.93837">
        <ele>419.75</ele>
        <time>2015-01-22T09:55:10Z</time>
      </trkpt>
      <trkpt lat="43.16986" lon="0.9381">
        <ele>419.27</ele>
        <time>2015-01-22T09:55:26Z</time>
      </trkpt>
      <trkpt lat="43.16994" lon="0.93785">
        <ele>419.27</ele>
        <time>2015-01-22T09:55:42Z</time>
      </trkpt>
      <trkpt lat="43.16996" lon="0.9378">
        <ele>418.31</ele>
        <time>2015-01-22T09:55:54Z</time>
      </trkpt>
      <trkpt lat="43.16995" lon="0.93779">
        <ele>419.27</ele>
        <time>2015-01-22T09:56:17Z</time>
      </trkpt>
      <trkpt lat="43.16996" lon="0.93779">
        <ele>419.27</ele>
        <time>2015-01-22T09:56:42Z</time>
      </trkpt>
      <trkpt lat="43.16995" lon="0.93778">
        <ele>417.83</ele>
        <time>2015-01-22T09:56:53Z</time>
      </trkpt>
      <trkpt lat="43.16996" lon="0.93779">
        <ele>419.27</ele>
        <time>2015-01-22T09:57:07Z</time>
      </trkpt>
      <trkpt lat="43.16999" lon="0.93769">
        <ele>417.83</ele>
        <time>2015-01-22T09:57:22Z</time>
      </trkpt>
      <trkpt lat="43.17009" lon="0.93747">
        <ele>417.83</ele>
        <time>2015-01-22T09:57:39Z</time>
      </trkpt>
      <trkpt lat="43.17016" lon="0.93728">
        <ele>417.83</ele>
        <time>2015-01-22T09:57:55Z</time>
      </trkpt>
      <trkpt lat="43.17026" lon="0.93702">
        <ele>417.83</ele>
        <time>2015-01-22T09:58:16Z</time>
      </trkpt>
      <trkpt lat="43.17034" lon="0.93677">
        <ele>417.83</ele>
        <time>2015-01-22T09:58:33Z</time>
      </trkpt>
      <trkpt lat="43.17044" lon="0.93654">
        <ele>417.83</ele>
        <time>2015-01-22T09:58:50Z</time>
      </trkpt>
      <trkpt lat="43.17057" lon="0.93631">
        <ele>417.83</ele>
        <time>2015-01-22T09:59:07Z</time>
      </trkpt>
      <trkpt lat="43.1707" lon="0.93607">
        <ele>417.83</ele>
        <time>2015-01-22T09:59:24Z</time>
      </trkpt>
      <trkpt lat="43.17086" lon="0.93582">
        <ele>417.35</ele>
        <time>2015-01-22T09:59:41Z</time>
      </trkpt>
      <trkpt lat="43.17096" lon="0.93556">
        <ele>416.87</ele>
        <time>2015-01-22T09:59:58Z</time>
      </trkpt>
      <trkpt lat="43.171" lon="0.93537">
        <ele>416.87</ele>
        <time>2015-01-22T10:00:11Z</time>
      </trkpt>
      <trkpt lat="43.1711" lon="0.93512">
        <ele>416.87</ele>
        <time>2015-01-22T10:00:28Z</time>
      </trkpt>
      <trkpt lat="43.1712" lon="0.9349">
        <ele>416.87</ele>
        <time>2015-01-22T10:00:44Z</time>
      </trkpt>
      <trkpt lat="43.17131" lon="0.93464">
        <ele>415.91</ele>
        <time>2015-01-22T10:01:04Z</time>
      </trkpt>
      <trkpt lat="43.17137" lon="0.93433">
        <ele>414.95</ele>
        <time>2015-01-22T10:01:23Z</time>
      </trkpt>
      <trkpt lat="43.17144" lon="0.93395">
        <ele>413.5</ele>
        <time>2015-01-22T10:01:42Z</time>
      </trkpt>
      <trkpt lat="43.17145" lon="0.9339">
        <ele>413.02</ele>
        <time>2015-01-22T10:01:45Z</time>
      </trkpt>
      <trkpt lat="43.17151" lon="0.93359">
        <ele>412.54</ele>
        <time>2015-01-22T10:02:02Z</time>
      </trkpt>
      <trkpt lat="43.17153" lon="0.93353">
        <ele>412.06</ele>
        <time>2015-01-22T10:02:06Z</time>
      </trkpt>
      <trkpt lat="43.1715" lon="0.93327">
        <ele>413.02</ele>
        <time>2015-01-22T10:02:26Z</time>
      </trkpt>
      <trkpt lat="43.17148" lon="0.93322">
        <ele>413.02</ele>
        <time>2015-01-22T10:02:29Z</time>
      </trkpt>
      <trkpt lat="43.17136" lon="0.93302">
        <ele>413.98</ele>
        <time>2015-01-22T10:02:45Z</time>
      </trkpt>
      <trkpt lat="43.17123" lon="0.9328">
        <ele>415.43</ele>
        <time>2015-01-22T10:03:05Z</time>
      </trkpt>
      <trkpt lat="43.17107" lon="0.93259">
        <ele>415.43</ele>
        <time>2015-01-22T10:03:23Z</time>
      </trkpt>
      <trkpt lat="43.1709" lon="0.93242">
        <ele>415.91</ele>
        <time>2015-01-22T10:03:40Z</time>
      </trkpt>
      <trkpt lat="43.1707" lon="0.93225">
        <ele>414.47</ele>
        <time>2015-01-22T10:03:59Z</time>
      </trkpt>
      <trkpt lat="43.17057" lon="0.93211">
        <ele>413.98</ele>
        <time>2015-01-22T10:04:13Z</time>
      </trkpt>
      <trkpt lat="43.17046" lon="0.93199">
        <ele>412.54</ele>
        <time>2015-01-22T10:04:30Z</time>
      </trkpt>
      <trkpt lat="43.17032" lon="0.93183">
        <ele>409.66</ele>
        <time>2015-01-22T10:04:45Z</time>
      </trkpt>
      <trkpt lat="43.17021" lon="0.93168">
        <ele>406.29</ele>
        <time>2015-01-22T10:04:59Z</time>
      </trkpt>
      <trkpt lat="43.17008" lon="0.93146">
        <ele>404.37</ele>
        <time>2015-01-22T10:05:15Z</time>
      </trkpt>
      <trkpt lat="43.17002" lon="0.93138">
        <ele>403.41</ele>
        <time>2015-01-22T10:05:21Z</time>
      </trkpt>
      <trkpt lat="43.16999" lon="0.93134">
        <ele>402.93</ele>
        <time>2015-01-22T10:05:25Z</time>
      </trkpt>
      <trkpt lat="43.16988" lon="0.93117">
        <ele>401.49</ele>
        <time>2015-01-22T10:05:39Z</time>
      </trkpt>
      <trkpt lat="43.16975" lon="0.931">
        <ele>400.05</ele>
        <time>2015-01-22T10:05:53Z</time>
      </trkpt>
      <trkpt lat="43.1696" lon="0.93077">
        <ele>397.16</ele>
        <time>2015-01-22T10:06:14Z</time>
      </trkpt>
      <trkpt lat="43.16953" lon="0.93056">
        <ele>394.76</ele>
        <time>2015-01-22T10:06:31Z</time>
      </trkpt>
      <trkpt lat="43.16951" lon="0.93032">
        <ele>392.36</ele>
        <time>2015-01-22T10:06:47Z</time>
      </trkpt>
      <trkpt lat="43.16953" lon="0.93005">
        <ele>390.43</ele>
        <time>2015-01-22T10:07:04Z</time>
      </trkpt>
      <trkpt lat="43.16954" lon="0.93001">
        <ele>390.91</ele>
        <time>2015-01-22T10:07:08Z</time>
      </trkpt>
      <trkpt lat="43.16959" lon="0.92969">
        <ele>388.51</ele>
        <time>2015-01-22T10:07:27Z</time>
      </trkpt>
      <trkpt lat="43.16964" lon="0.92945">
        <ele>385.15</ele>
        <time>2015-01-22T10:07:42Z</time>
      </trkpt>
      <trkpt lat="43.1697" lon="0.92921">
        <ele>383.22</ele>
        <time>2015-01-22T10:07:57Z</time>
      </trkpt>
      <trkpt lat="43.16973" lon="0.92902">
        <ele>381.3</ele>
        <time>2015-01-22T10:08:14Z</time>
      </trkpt>
      <trkpt lat="43.16974" lon="0.92893">
        <ele>380.34</ele>
        <time>2015-01-22T10:08:29Z</time>
      </trkpt>
      <trkpt lat="43.16973" lon="0.92883">
        <ele>379.86</ele>
        <time>2015-01-22T10:08:41Z</time>
      </trkpt>
      <trkpt lat="43.16973" lon="0.92878">
        <ele>379.86</ele>
        <time>2015-01-22T10:09:08Z</time>
      </trkpt>
      <trkpt lat="43.16976" lon="0.92866">
        <ele>378.9</ele>
        <time>2015-01-22T10:09:24Z</time>
      </trkpt>
      <trkpt lat="43.16972" lon="0.92858">
        <ele>377.45</ele>
        <time>2015-01-22T10:09:40Z</time>
      </trkpt>
      <trkpt lat="43.1697" lon="0.92853">
        <ele>376.97</ele>
        <time>2015-01-22T10:10:05Z</time>
      </trkpt>
      <trkpt lat="43.16968" lon="0.92853">
        <ele>376.97</ele>
        <time>2015-01-22T10:10:36Z</time>
      </trkpt>
      <trkpt lat="43.16969" lon="0.92854">
        <ele>376.97</ele>
        <time>2015-01-22T10:11:00Z</time>
      </trkpt>
      <trkpt lat="43.16968" lon="0.92855">
        <ele>376.97</ele>
        <time>2015-01-22T10:11:38Z</time>
      </trkpt>
      <trkpt lat="43.16972" lon="0.92858">
        <ele>376.97</ele>
        <time>2015-01-22T10:12:00Z</time>
      </trkpt>
      <trkpt lat="43.16978" lon="0.92865">
        <ele>378.9</ele>
        <time>2015-01-22T10:12:12Z</time>
      </trkpt>
      <trkpt lat="43.16969" lon="0.92882">
        <ele>379.86</ele>
        <time>2015-01-22T10:12:27Z</time>
      </trkpt>
      <trkpt lat="43.16961" lon="0.92899">
        <ele>380.34</ele>
        <time>2015-01-22T10:12:42Z</time>
      </trkpt>
      <trkpt lat="43.16948" lon="0.92919">
        <ele>380.34</ele>
        <time>2015-01-22T10:13:00Z</time>
      </trkpt>
      <trkpt lat="43.16939" lon="0.92937">
        <ele>380.34</ele>
        <time>2015-01-22T10:13:15Z</time>
      </trkpt>
      <trkpt lat="43.16928" lon="0.92959">
        <ele>378.42</ele>
        <time>2015-01-22T10:13:31Z</time>
      </trkpt>
      <trkpt lat="43.16928" lon="0.9296">
        <ele>378.42</ele>
        <time>2015-01-22T10:13:32Z</time>
      </trkpt>
      <trkpt lat="43.16915" lon="0.9299">
        <ele>377.45</ele>
        <time>2015-01-22T10:13:50Z</time>
      </trkpt>
      <trkpt lat="43.16915" lon="0.92991">
        <ele>377.45</ele>
        <time>2015-01-22T10:13:51Z</time>
      </trkpt>
      <trkpt lat="43.16902" lon="0.93012">
        <ele>376.97</ele>
        <time>2015-01-22T10:14:07Z</time>
      </trkpt>
      <trkpt lat="43.1689" lon="0.93032">
        <ele>376.97</ele>
        <time>2015-01-22T10:14:24Z</time>
      </trkpt>
      <trkpt lat="43.16882" lon="0.93046">
        <ele>376.97</ele>
        <time>2015-01-22T10:14:39Z</time>
      </trkpt>
      <trkpt lat="43.16877" lon="0.93055">
        <ele>378.42</ele>
        <time>2015-01-22T10:14:51Z</time>
      </trkpt>
      <trkpt lat="43.16862" lon="0.93074">
        <ele>379.86</ele>
        <time>2015-01-22T10:15:07Z</time>
      </trkpt>
      <trkpt lat="43.16847" lon="0.93094">
        <ele>380.82</ele>
        <time>2015-01-22T10:15:26Z</time>
      </trkpt>
      <trkpt lat="43.16833" lon="0.93108">
        <ele>380.82</ele>
        <time>2015-01-22T10:15:40Z</time>
      </trkpt>
      <trkpt lat="43.1682" lon="0.93119">
        <ele>379.38</ele>
        <time>2015-01-22T10:15:51Z</time>
      </trkpt>
      <trkpt lat="43.168" lon="0.93137">
        <ele>377.94</ele>
        <time>2015-01-22T10:16:08Z</time>
      </trkpt>
      <trkpt lat="43.16783" lon="0.9316">
        <ele>376.01</ele>
        <time>2015-01-22T10:16:25Z</time>
      </trkpt>
      <trkpt lat="43.16772" lon="0.9319">
        <ele>374.09</ele>
        <time>2015-01-22T10:16:43Z</time>
      </trkpt>
      <trkpt lat="43.16771" lon="0.93225">
        <ele>373.13</ele>
        <time>2015-01-22T10:17:03Z</time>
      </trkpt>
      <trkpt lat="43.16771" lon="0.93256">
        <ele>371.21</ele>
        <time>2015-01-22T10:17:21Z</time>
      </trkpt>
      <trkpt lat="43.16761" lon="0.93292">
        <ele>369.28</ele>
        <time>2015-01-22T10:17:40Z</time>
      </trkpt>
      <trkpt lat="43.16745" lon="0.93315">
        <ele>367.84</ele>
        <time>2015-01-22T10:17:58Z</time>
      </trkpt>
      <trkpt lat="43.16739" lon="0.93319">
        <ele>367.36</ele>
        <time>2015-01-22T10:18:03Z</time>
      </trkpt>
      <trkpt lat="43.16726" lon="0.93327">
        <ele>367.36</ele>
        <time>2015-01-22T10:18:14Z</time>
      </trkpt>
      <trkpt lat="43.16723" lon="0.93327">
        <ele>367.36</ele>
        <time>2015-01-22T10:18:16Z</time>
      </trkpt>
      <trkpt lat="43.16716" lon="0.93329">
        <ele>367.36</ele>
        <time>2015-01-22T10:18:22Z</time>
      </trkpt>
      <trkpt lat="43.16704" lon="0.93332">
        <ele>367.36</ele>
        <time>2015-01-22T10:18:32Z</time>
      </trkpt>
      <trkpt lat="43.16684" lon="0.93343">
        <ele>367.36</ele>
        <time>2015-01-22T10:18:50Z</time>
      </trkpt>
      <trkpt lat="43.16658" lon="0.93354">
        <ele>365.92</ele>
        <time>2015-01-22T10:19:08Z</time>
      </trkpt>
      <trkpt lat="43.16638" lon="0.93367">
        <ele>364.96</ele>
        <time>2015-01-22T10:19:25Z</time>
      </trkpt>
      <trkpt lat="43.16623" lon="0.93385">
        <ele>364</ele>
        <time>2015-01-22T10:19:41Z</time>
      </trkpt>
      <trkpt lat="43.16612" lon="0.93407">
        <ele>364</ele>
        <time>2015-01-22T10:19:56Z</time>
      </trkpt>
      <trkpt lat="43.16597" lon="0.93431">
        <ele>364</ele>
        <time>2015-01-22T10:20:14Z</time>
      </trkpt>
      <trkpt lat="43.16583" lon="0.93453">
        <ele>365.92</ele>
        <time>2015-01-22T10:20:31Z</time>
      </trkpt>
      <trkpt lat="43.16571" lon="0.93475">
        <ele>366.4</ele>
        <time>2015-01-22T10:20:48Z</time>
      </trkpt>
      <trkpt lat="43.16563" lon="0.93497">
        <ele>366.4</ele>
        <time>2015-01-22T10:21:05Z</time>
      </trkpt>
      <trkpt lat="43.16562" lon="0.93501">
        <ele>366.4</ele>
        <time>2015-01-22T10:21:08Z</time>
      </trkpt>
      <trkpt lat="43.16558" lon="0.93515">
        <ele>366.88</ele>
        <time>2015-01-22T10:21:17Z</time>
      </trkpt>
      <trkpt lat="43.16545" lon="0.93543">
        <ele>366.88</ele>
        <time>2015-01-22T10:21:33Z</time>
      </trkpt>
      <trkpt lat="43.16535" lon="0.93569">
        <ele>364.96</ele>
        <time>2015-01-22T10:21:50Z</time>
      </trkpt>
      <trkpt lat="43.16525" lon="0.93594">
        <ele>363.52</ele>
        <time>2015-01-22T10:22:07Z</time>
      </trkpt>
      <trkpt lat="43.16512" lon="0.93621">
        <ele>361.59</ele>
        <time>2015-01-22T10:22:24Z</time>
      </trkpt>
      <trkpt lat="43.16506" lon="0.93636">
        <ele>360.63</ele>
        <time>2015-01-22T10:22:32Z</time>
      </trkpt>
      <trkpt lat="43.16494" lon="0.93662">
        <ele>357.75</ele>
        <time>2015-01-22T10:22:51Z</time>
      </trkpt>
      <trkpt lat="43.16483" lon="0.93684">
        <ele>355.34</ele>
        <time>2015-01-22T10:23:08Z</time>
      </trkpt>
      <trkpt lat="43.16473" lon="0.93702">
        <ele>353.9</ele>
        <time>2015-01-22T10:23:22Z</time>
      </trkpt>
      <trkpt lat="43.16455" lon="0.93721">
        <ele>351.02</ele>
        <time>2015-01-22T10:23:38Z</time>
      </trkpt>
      <trkpt lat="43.16442" lon="0.93733">
        <ele>348.62</ele>
        <time>2015-01-22T10:23:56Z</time>
      </trkpt>
      <trkpt lat="43.16443" lon="0.93735">
        <ele>349.58</ele>
        <time>2015-01-22T10:24:15Z</time>
      </trkpt>
      <trkpt lat="43.16441" lon="0.93734">
        <ele>348.62</ele>
        <time>2015-01-22T10:24:28Z</time>
      </trkpt>
      <trkpt lat="43.1644" lon="0.93731">
        <ele>349.1</ele>
        <time>2015-01-22T10:24:41Z</time>
      </trkpt>
      <trkpt lat="43.16438" lon="0.93737">
        <ele>349.1</ele>
        <time>2015-01-22T10:24:49Z</time>
      </trkpt>
      <trkpt lat="43.16438" lon="0.93739">
        <ele>348.13</ele>
        <time>2015-01-22T10:24:51Z</time>
      </trkpt>
      <trkpt lat="43.16437" lon="0.93745">
        <ele>348.13</ele>
        <time>2015-01-22T10:25:06Z</time>
      </trkpt>
      <trkpt lat="43.16437" lon="0.93745">
        <ele>349.1</ele>
        <time>2015-01-22T10:25:08Z</time>
      </trkpt>
      <trkpt lat="43.16436" lon="0.93745">
        <ele>348.13</ele>
        <time>2015-01-22T10:25:20Z</time>
      </trkpt>
      <trkpt lat="43.16405" lon="0.9376">
        <ele>343.33</ele>
        <time>2015-01-22T10:26:04Z</time>
      </trkpt>
      <trkpt lat="43.16392" lon="0.93763">
        <ele>342.85</ele>
        <time>2015-01-22T10:26:16Z</time>
      </trkpt>
      <trkpt lat="43.1639" lon="0.93764">
        <ele>341.41</ele>
        <time>2015-01-22T10:26:18Z</time>
      </trkpt>
      <trkpt lat="43.1637" lon="0.9377">
        <ele>338.04</ele>
        <time>2015-01-22T10:26:34Z</time>
      </trkpt>
      <trkpt lat="43.1621" lon="0.93915">
        <ele>319.3</ele>
        <time>2015-01-22T10:29:07Z</time>
      </trkpt>
      <trkpt lat="43.16204" lon="0.93922">
        <ele>318.33</ele>
        <time>2015-01-22T10:29:14Z</time>
      </trkpt>
      <trkpt lat="43.16183" lon="0.9395">
        <ele>317.37</ele>
        <time>2015-01-22T10:29:38Z</time>
      </trkpt>
      <trkpt lat="43.16171" lon="0.9397">
        <ele>315.45</ele>
        <time>2015-01-22T10:29:56Z</time>
      </trkpt>
      <trkpt lat="43.16161" lon="0.9399">
        <ele>314.01</ele>
        <time>2015-01-22T10:30:13Z</time>
      </trkpt>
      <trkpt lat="43.16153" lon="0.9401">
        <ele>313.05</ele>
        <time>2015-01-22T10:30:28Z</time>
      </trkpt>
      <trkpt lat="43.16142" lon="0.94038">
        <ele>311.6</ele>
        <time>2015-01-22T10:30:46Z</time>
      </trkpt>
      <trkpt lat="43.16133" lon="0.94058">
        <ele>311.12</ele>
        <time>2015-01-22T10:31:00Z</time>
      </trkpt>
      <trkpt lat="43.16117" lon="0.94082">
        <ele>309.2</ele>
        <time>2015-01-22T10:31:19Z</time>
      </trkpt>
      <trkpt lat="43.16101" lon="0.94105">
        <ele>308.72</ele>
        <time>2015-01-22T10:31:38Z</time>
      </trkpt>
      <trkpt lat="43.16085" lon="0.94131">
        <ele>307.76</ele>
        <time>2015-01-22T10:31:57Z</time>
      </trkpt>
      <trkpt lat="43.16083" lon="0.94135">
        <ele>307.76</ele>
        <time>2015-01-22T10:32:00Z</time>
      </trkpt>
      <trkpt lat="43.16067" lon="0.94159">
        <ele>307.28</ele>
        <time>2015-01-22T10:32:19Z</time>
      </trkpt>
      <trkpt lat="43.16052" lon="0.94177">
        <ele>306.32</ele>
        <time>2015-01-22T10:32:35Z</time>
      </trkpt>
      <trkpt lat="43.16037" lon="0.94193">
        <ele>304.88</ele>
        <time>2015-01-22T10:32:47Z</time>
      </trkpt>
      <trkpt lat="43.16036" lon="0.94191">
        <ele>304.39</ele>
        <time>2015-01-22T10:32:52Z</time>
      </trkpt>
      <trkpt lat="43.16033" lon="0.94192">
        <ele>304.39</ele>
        <time>2015-01-22T10:32:54Z</time>
      </trkpt>
      <trkpt lat="43.16031" lon="0.94193">
        <ele>303.91</ele>
        <time>2015-01-22T10:32:55Z</time>
      </trkpt>
      <trkpt lat="43.16025" lon="0.94194">
        <ele>303.43</ele>
        <time>2015-01-22T10:33:03Z</time>
      </trkpt>
      <trkpt lat="43.16023" lon="0.94195">
        <ele>303.43</ele>
        <time>2015-01-22T10:33:04Z</time>
      </trkpt>
      <trkpt lat="43.16021" lon="0.94196">
        <ele>303.43</ele>
        <time>2015-01-22T10:33:05Z</time>
      </trkpt>
      <trkpt lat="43.16019" lon="0.94197">
        <ele>303.43</ele>
        <time>2015-01-22T10:33:06Z</time>
      </trkpt>
      <trkpt lat="43.16017" lon="0.94199">
        <ele>303.43</ele>
        <time>2015-01-22T10:33:07Z</time>
      </trkpt>
      <trkpt lat="43.16015" lon="0.942">
        <ele>302.95</ele>
        <time>2015-01-22T10:33:08Z</time>
      </trkpt>
      <trkpt lat="43.16014" lon="0.94201">
        <ele>302.95</ele>
        <time>2015-01-22T10:33:09Z</time>
      </trkpt>
      <trkpt lat="43.16013" lon="0.94201">
        <ele>302.95</ele>
        <time>2015-01-22T10:33:10Z</time>
      </trkpt>
      <trkpt lat="43.15994" lon="0.94208">
        <ele>300.55</ele>
        <time>2015-01-22T10:33:26Z</time>
      </trkpt>
      <trkpt lat="43.15989" lon="0.94211">
        <ele>300.55</ele>
        <time>2015-01-22T10:33:33Z</time>
      </trkpt>
      <trkpt lat="43.15983" lon="0.94212">
        <ele>299.59</ele>
        <time>2015-01-22T10:33:44Z</time>
      </trkpt>
      <trkpt lat="43.15977" lon="0.9422">
        <ele>299.11</ele>
        <time>2015-01-22T10:33:53Z</time>
      </trkpt>
      <trkpt lat="43.15976" lon="0.9422">
        <ele>299.59</ele>
        <time>2015-01-22T10:34:03Z</time>
      </trkpt>
      <trkpt lat="43.15975" lon="0.94221">
        <ele>299.11</ele>
        <time>2015-01-22T10:34:04Z</time>
      </trkpt>
      <trkpt lat="43.15974" lon="0.94223">
        <ele>299.11</ele>
        <time>2015-01-22T10:34:05Z</time>
      </trkpt>
      <trkpt lat="43.15972" lon="0.94225">
        <ele>298.63</ele>
        <time>2015-01-22T10:34:06Z</time>
      </trkpt>
      <trkpt lat="43.15971" lon="0.94226">
        <ele>298.63</ele>
        <time>2015-01-22T10:34:07Z</time>
      </trkpt>
      <trkpt lat="43.1597" lon="0.94227">
        <ele>298.63</ele>
        <time>2015-01-22T10:34:08Z</time>
      </trkpt>
      <trkpt lat="43.15969" lon="0.94228">
        <ele>298.63</ele>
        <time>2015-01-22T10:34:09Z</time>
      </trkpt>
      <trkpt lat="43.15967" lon="0.94233">
        <ele>297.67</ele>
        <time>2015-01-22T10:34:17Z</time>
      </trkpt>
      <trkpt lat="43.15966" lon="0.94235">
        <ele>297.67</ele>
        <time>2015-01-22T10:34:18Z</time>
      </trkpt>
      <trkpt lat="43.15965" lon="0.94238">
        <ele>297.67</ele>
        <time>2015-01-22T10:34:19Z</time>
      </trkpt>
      <trkpt lat="43.15964" lon="0.9424">
        <ele>297.67</ele>
        <time>2015-01-22T10:34:20Z</time>
      </trkpt>
      <trkpt lat="43.15964" lon="0.94241">
        <ele>297.67</ele>
        <time>2015-01-22T10:34:21Z</time>
      </trkpt>
      <trkpt lat="43.15963" lon="0.94242">
        <ele>297.18</ele>
        <time>2015-01-22T10:34:22Z</time>
      </trkpt>
      <trkpt lat="43.1596" lon="0.94248">
        <ele>296.22</ele>
        <time>2015-01-22T10:34:27Z</time>
      </trkpt>
      <trkpt lat="43.1596" lon="0.9425">
        <ele>296.22</ele>
        <time>2015-01-22T10:34:28Z</time>
      </trkpt>
      <trkpt lat="43.1596" lon="0.94253">
        <ele>296.22</ele>
        <time>2015-01-22T10:34:29Z</time>
      </trkpt>
      <trkpt lat="43.15957" lon="0.94266">
        <ele>294.78</ele>
        <time>2015-01-22T10:34:40Z</time>
      </trkpt>
      <trkpt lat="43.15956" lon="0.94268">
        <ele>294.78</ele>
        <time>2015-01-22T10:34:47Z</time>
      </trkpt>
      <trkpt lat="43.15956" lon="0.9427">
        <ele>294.78</ele>
        <time>2015-01-22T10:34:48Z</time>
      </trkpt>
      <trkpt lat="43.15956" lon="0.94271">
        <ele>294.78</ele>
        <time>2015-01-22T10:34:49Z</time>
      </trkpt>
      <trkpt lat="43.15956" lon="0.94273">
        <ele>294.78</ele>
        <time>2015-01-22T10:34:50Z</time>
      </trkpt>
      <trkpt lat="43.15955" lon="0.94275">
        <ele>294.78</ele>
        <time>2015-01-22T10:34:51Z</time>
      </trkpt>
      <trkpt lat="43.15954" lon="0.94276">
        <ele>294.78</ele>
        <time>2015-01-22T10:34:52Z</time>
      </trkpt>
      <trkpt lat="43.15952" lon="0.94282">
        <ele>292.86</ele>
        <time>2015-01-22T10:34:59Z</time>
      </trkpt>
      <trkpt lat="43.15952" lon="0.94284">
        <ele>292.86</ele>
        <time>2015-01-22T10:35:00Z</time>
      </trkpt>
      <trkpt lat="43.15952" lon="0.94287">
        <ele>292.86</ele>
        <time>2015-01-22T10:35:01Z</time>
      </trkpt>
      <trkpt lat="43.15952" lon="0.94289">
        <ele>292.86</ele>
        <time>2015-01-22T10:35:02Z</time>
      </trkpt>
      <trkpt lat="43.15951" lon="0.94291">
        <ele>292.86</ele>
        <time>2015-01-22T10:35:03Z</time>
      </trkpt>
      <trkpt lat="43.15941" lon="0.94313">
        <ele>290.94</ele>
        <time>2015-01-22T10:35:17Z</time>
      </trkpt>
      <trkpt lat="43.15929" lon="0.94339">
        <ele>289.01</ele>
        <time>2015-01-22T10:35:34Z</time>
      </trkpt>
      <trkpt lat="43.15917" lon="0.94363">
        <ele>287.09</ele>
        <time>2015-01-22T10:35:51Z</time>
      </trkpt>
      <trkpt lat="43.15914" lon="0.94371">
        <ele>287.09</ele>
        <time>2015-01-22T10:36:05Z</time>
      </trkpt>
      <trkpt lat="43.15914" lon="0.94376">
        <ele>287.09</ele>
        <time>2015-01-22T10:36:21Z</time>
      </trkpt>
      <trkpt lat="43.15912" lon="0.94378">
        <ele>287.09</ele>
        <time>2015-01-22T10:36:37Z</time>
      </trkpt>
      <trkpt lat="43.15906" lon="0.94392">
        <ele>286.61</ele>
        <time>2015-01-22T10:36:55Z</time>
      </trkpt>
      <trkpt lat="43.15902" lon="0.94394">
        <ele>286.13</ele>
        <time>2015-01-22T10:37:01Z</time>
      </trkpt>
      <trkpt lat="43.15901" lon="0.94396">
        <ele>286.13</ele>
        <time>2015-01-22T10:37:02Z</time>
      </trkpt>
      <trkpt lat="43.159" lon="0.94398">
        <ele>286.13</ele>
        <time>2015-01-22T10:37:03Z</time>
      </trkpt>
      <trkpt lat="43.15891" lon="0.94427">
        <ele>285.17</ele>
        <time>2015-01-22T10:37:15Z</time>
      </trkpt>
      <trkpt lat="43.15882" lon="0.94446">
        <ele>282.77</ele>
        <time>2015-01-22T10:37:30Z</time>
      </trkpt>
      <trkpt lat="43.15873" lon="0.94462">
        <ele>281.32</ele>
        <time>2015-01-22T10:37:45Z</time>
      </trkpt>
      <trkpt lat="43.15863" lon="0.94489">
        <ele>279.4</ele>
        <time>2015-01-22T10:38:03Z</time>
      </trkpt>
      <trkpt lat="43.15849" lon="0.94512">
        <ele>278.44</ele>
        <time>2015-01-22T10:38:20Z</time>
      </trkpt>
      <trkpt lat="43.15838" lon="0.94528">
        <ele>277.96</ele>
        <time>2015-01-22T10:38:37Z</time>
      </trkpt>
      <trkpt lat="43.15832" lon="0.94532">
        <ele>277.96</ele>
        <time>2015-01-22T10:38:52Z</time>
      </trkpt>
      <trkpt lat="43.15825" lon="0.94541">
        <ele>277.96</ele>
        <time>2015-01-22T10:39:08Z</time>
      </trkpt>
      <trkpt lat="43.15822" lon="0.94548">
        <ele>277.48</ele>
        <time>2015-01-22T10:39:20Z</time>
      </trkpt>
      <trkpt lat="43.15806" lon="0.9457">
        <ele>277.48</ele>
        <time>2015-01-22T10:39:41Z</time>
      </trkpt>
      <trkpt lat="43.158" lon="0.9458">
        <ele>277.48</ele>
        <time>2015-01-22T10:39:57Z</time>
      </trkpt>
      <trkpt lat="43.15796" lon="0.94588">
        <ele>277.48</ele>
        <time>2015-01-22T10:40:12Z</time>
      </trkpt>
      <trkpt lat="43.15791" lon="0.94595">
        <ele>277.48</ele>
        <time>2015-01-22T10:40:28Z</time>
      </trkpt>
      <trkpt lat="43.15782" lon="0.946">
        <ele>277</ele>
        <time>2015-01-22T10:40:46Z</time>
      </trkpt>
      <trkpt lat="43.15779" lon="0.94603">
        <ele>276.52</ele>
        <time>2015-01-22T10:41:05Z</time>
      </trkpt>
      <trkpt lat="43.15777" lon="0.94609">
        <ele>276.52</ele>
        <time>2015-01-22T10:41:10Z</time>
      </trkpt>
      <trkpt lat="43.15775" lon="0.94628">
        <ele>276.52</ele>
        <time>2015-01-22T10:41:24Z</time>
      </trkpt>
      <trkpt lat="43.15769" lon="0.94651">
        <ele>276.52</ele>
        <time>2015-01-22T10:41:41Z</time>
      </trkpt>
      <trkpt lat="43.15768" lon="0.94654">
        <ele>276.52</ele>
        <time>2015-01-22T10:41:44Z</time>
      </trkpt>
      <trkpt lat="43.15764" lon="0.94677">
        <ele>277.48</ele>
        <time>2015-01-22T10:41:59Z</time>
      </trkpt>
      <trkpt lat="43.15758" lon="0.94696">
        <ele>278.44</ele>
        <time>2015-01-22T10:42:16Z</time>
      </trkpt>
      <trkpt lat="43.15756" lon="0.94706">
        <ele>278.44</ele>
        <time>2015-01-22T10:42:22Z</time>
      </trkpt>
      <trkpt lat="43.15753" lon="0.94721">
        <ele>278.92</ele>
        <time>2015-01-22T10:42:30Z</time>
      </trkpt>
      <trkpt lat="43.15744" lon="0.94751">
        <ele>280.84</ele>
        <time>2015-01-22T10:42:47Z</time>
      </trkpt>
      <trkpt lat="43.15744" lon="0.94759">
        <ele>280.84</ele>
        <time>2015-01-22T10:42:51Z</time>
      </trkpt>
      <trkpt lat="43.15744" lon="0.94761">
        <ele>280.84</ele>
        <time>2015-01-22T10:42:52Z</time>
      </trkpt>
      <trkpt lat="43.15743" lon="0.94764">
        <ele>281.32</ele>
        <time>2015-01-22T10:42:53Z</time>
      </trkpt>
      <trkpt lat="43.15736" lon="0.94786">
        <ele>281.8</ele>
        <time>2015-01-22T10:43:09Z</time>
      </trkpt>
      <trkpt lat="43.15729" lon="0.94809">
        <ele>282.77</ele>
        <time>2015-01-22T10:43:26Z</time>
      </trkpt>
      <trkpt lat="43.15726" lon="0.94815">
        <ele>283.73</ele>
        <time>2015-01-22T10:43:31Z</time>
      </trkpt>
      <trkpt lat="43.15721" lon="0.94825">
        <ele>283.73</ele>
        <time>2015-01-22T10:43:40Z</time>
      </trkpt>
      <trkpt lat="43.15715" lon="0.9485">
        <ele>285.17</ele>
        <time>2015-01-22T10:43:56Z</time>
      </trkpt>
      <trkpt lat="43.15706" lon="0.94858">
        <ele>287.57</ele>
        <time>2015-01-22T10:44:11Z</time>
      </trkpt>
      <trkpt lat="43.15691" lon="0.9486">
        <ele>289.49</ele>
        <time>2015-01-22T10:44:28Z</time>
      </trkpt>
      <trkpt lat="43.1569" lon="0.9486">
        <ele>289.49</ele>
        <time>2015-01-22T10:44:29Z</time>
      </trkpt>
      <trkpt lat="43.15681" lon="0.94859">
        <ele>292.86</ele>
        <time>2015-01-22T10:44:41Z</time>
      </trkpt>
      <trkpt lat="43.1567" lon="0.94854">
        <ele>294.78</ele>
        <time>2015-01-22T10:44:56Z</time>
      </trkpt>
      <trkpt lat="43.15656" lon="0.94852">
        <ele>298.15</ele>
        <time>2015-01-22T10:45:12Z</time>
      </trkpt>
      <trkpt lat="43.15655" lon="0.94851">
        <ele>298.15</ele>
        <time>2015-01-22T10:45:13Z</time>
      </trkpt>
      <trkpt lat="43.15643" lon="0.94848">
        <ele>300.07</ele>
        <time>2015-01-22T10:45:26Z</time>
      </trkpt>
      <trkpt lat="43.15632" lon="0.94845">
        <ele>301.03</ele>
        <time>2015-01-22T10:45:37Z</time>
      </trkpt>
      <trkpt lat="43.15617" lon="0.94837">
        <ele>301.51</ele>
        <time>2015-01-22T10:45:54Z</time>
      </trkpt>
      <trkpt lat="43.15604" lon="0.94831">
        <ele>303.91</ele>
        <time>2015-01-22T10:46:07Z</time>
      </trkpt>
      <trkpt lat="43.1559" lon="0.94824">
        <ele>306.32</ele>
        <time>2015-01-22T10:46:24Z</time>
      </trkpt>
      <trkpt lat="43.15584" lon="0.94815">
        <ele>306.32</ele>
        <time>2015-01-22T10:46:42Z</time>
      </trkpt>
      <trkpt lat="43.15583" lon="0.94811">
        <ele>306.32</ele>
        <time>2015-01-22T10:47:01Z</time>
      </trkpt>
      <trkpt lat="43.15581" lon="0.94809">
        <ele>306.32</ele>
        <time>2015-01-22T10:47:28Z</time>
      </trkpt>
      <trkpt lat="43.15578" lon="0.94815">
        <ele>306.32</ele>
        <time>2015-01-22T10:47:53Z</time>
      </trkpt>
      <trkpt lat="43.15577" lon="0.94818">
        <ele>306.32</ele>
        <time>2015-01-22T10:48:22Z</time>
      </trkpt>
      <trkpt lat="43.15574" lon="0.94819">
        <ele>307.76</ele>
        <time>2015-01-22T10:48:38Z</time>
      </trkpt>
      <trkpt lat="43.15573" lon="0.94817">
        <ele>306.32</ele>
        <time>2015-01-22T10:48:40Z</time>
      </trkpt>
      <trkpt lat="43.15568" lon="0.94812">
        <ele>309.68</ele>
        <time>2015-01-22T10:48:47Z</time>
      </trkpt>
      <trkpt lat="43.15567" lon="0.94812">
        <ele>309.68</ele>
        <time>2015-01-22T10:48:48Z</time>
      </trkpt>
      <trkpt lat="43.15564" lon="0.94808">
        <ele>308.72</ele>
        <time>2015-01-22T10:48:53Z</time>
      </trkpt>
      <trkpt lat="43.15562" lon="0.94806">
        <ele>308.72</ele>
        <time>2015-01-22T10:48:55Z</time>
      </trkpt>
      <trkpt lat="43.1556" lon="0.94805">
        <ele>308.72</ele>
        <time>2015-01-22T10:48:57Z</time>
      </trkpt>
      <trkpt lat="43.15559" lon="0.94804">
        <ele>308.72</ele>
        <time>2015-01-22T10:48:58Z</time>
      </trkpt>
      <trkpt lat="43.15556" lon="0.94802">
        <ele>310.64</ele>
        <time>2015-01-22T10:49:01Z</time>
      </trkpt>
      <trkpt lat="43.15552" lon="0.94801">
        <ele>310.64</ele>
        <time>2015-01-22T10:49:05Z</time>
      </trkpt>
      <trkpt lat="43.15551" lon="0.948">
        <ele>310.16</ele>
        <time>2015-01-22T10:49:06Z</time>
      </trkpt>
      <trkpt lat="43.15539" lon="0.94792">
        <ele>311.12</ele>
        <time>2015-01-22T10:49:20Z</time>
      </trkpt>
      <trkpt lat="43.15537" lon="0.94789">
        <ele>312.57</ele>
        <time>2015-01-22T10:49:22Z</time>
      </trkpt>
      <trkpt lat="43.15532" lon="0.94784">
        <ele>314.01</ele>
        <time>2015-01-22T10:49:28Z</time>
      </trkpt>
      <trkpt lat="43.15528" lon="0.94779">
        <ele>314.97</ele>
        <time>2015-01-22T10:49:34Z</time>
      </trkpt>
      <trkpt lat="43.15526" lon="0.94776">
        <ele>315.93</ele>
        <time>2015-01-22T10:49:36Z</time>
      </trkpt>
      <trkpt lat="43.1552" lon="0.94766">
        <ele>317.37</ele>
        <time>2015-01-22T10:49:47Z</time>
      </trkpt>
      <trkpt lat="43.15515" lon="0.94753">
        <ele>319.3</ele>
        <time>2015-01-22T10:49:59Z</time>
      </trkpt>
      <trkpt lat="43.15511" lon="0.94735">
        <ele>320.26</ele>
        <time>2015-01-22T10:50:13Z</time>
      </trkpt>
      <trkpt lat="43.15504" lon="0.94716">
        <ele>321.22</ele>
        <time>2015-01-22T10:50:27Z</time>
      </trkpt>
      <trkpt lat="43.15501" lon="0.94706">
        <ele>322.66</ele>
        <time>2015-01-22T10:50:36Z</time>
      </trkpt>
      <trkpt lat="43.15492" lon="0.94692">
        <ele>323.14</ele>
        <time>2015-01-22T10:50:48Z</time>
      </trkpt>
      <trkpt lat="43.15482" lon="0.94678">
        <ele>325.06</ele>
        <time>2015-01-22T10:51:01Z</time>
      </trkpt>
      <trkpt lat="43.15474" lon="0.94672">
        <ele>325.54</ele>
        <time>2015-01-22T10:51:13Z</time>
      </trkpt>
      <trkpt lat="43.15472" lon="0.94669">
        <ele>326.5</ele>
        <time>2015-01-22T10:51:17Z</time>
      </trkpt>
      <trkpt lat="43.15471" lon="0.94667">
        <ele>325.06</ele>
        <time>2015-01-22T10:51:19Z</time>
      </trkpt>
      <trkpt lat="43.15464" lon="0.94659">
        <ele>328.43</ele>
        <time>2015-01-22T10:51:30Z</time>
      </trkpt>
      <trkpt lat="43.15464" lon="0.94658">
        <ele>328.43</ele>
        <time>2015-01-22T10:51:31Z</time>
      </trkpt>
      <trkpt lat="43.15452" lon="0.94642">
        <ele>328.91</ele>
        <time>2015-01-22T10:51:48Z</time>
      </trkpt>
      <trkpt lat="43.15448" lon="0.94638">
        <ele>332.75</ele>
        <time>2015-01-22T10:51:55Z</time>
      </trkpt>
      <trkpt lat="43.15446" lon="0.94636">
        <ele>332.27</ele>
        <time>2015-01-22T10:51:59Z</time>
      </trkpt>
      <trkpt lat="43.15438" lon="0.94634">
        <ele>332.27</ele>
        <time>2015-01-22T10:52:08Z</time>
      </trkpt>
      <trkpt lat="43.15437" lon="0.94634">
        <ele>333.71</ele>
        <time>2015-01-22T10:52:09Z</time>
      </trkpt>
      <trkpt lat="43.15435" lon="0.94634">
        <ele>333.71</ele>
        <time>2015-01-22T10:52:10Z</time>
      </trkpt>
      <trkpt lat="43.15416" lon="0.94637">
        <ele>335.16</ele>
        <time>2015-01-22T10:52:26Z</time>
      </trkpt>
      <trkpt lat="43.15402" lon="0.94632">
        <ele>335.16</ele>
        <time>2015-01-22T10:52:42Z</time>
      </trkpt>
      <trkpt lat="43.15399" lon="0.94628">
        <ele>335.16</ele>
        <time>2015-01-22T10:52:47Z</time>
      </trkpt>
      <trkpt lat="43.15383" lon="0.94613">
        <ele>336.12</ele>
        <time>2015-01-22T10:53:03Z</time>
      </trkpt>
      <trkpt lat="43.15376" lon="0.94601">
        <ele>336.12</ele>
        <time>2015-01-22T10:53:14Z</time>
      </trkpt>
      <trkpt lat="43.15375" lon="0.946">
        <ele>336.12</ele>
        <time>2015-01-22T10:53:15Z</time>
      </trkpt>
      <trkpt lat="43.15375" lon="0.94599">
        <ele>336.12</ele>
        <time>2015-01-22T10:53:16Z</time>
      </trkpt>
      <trkpt lat="43.15368" lon="0.94579">
        <ele>338.04</ele>
        <time>2015-01-22T10:53:33Z</time>
      </trkpt>
      <trkpt lat="43.15362" lon="0.9456">
        <ele>339.48</ele>
        <time>2015-01-22T10:53:49Z</time>
      </trkpt>
      <trkpt lat="43.15357" lon="0.94544">
        <ele>340.44</ele>
        <time>2015-01-22T10:54:01Z</time>
      </trkpt>
      <trkpt lat="43.1535" lon="0.94526">
        <ele>341.41</ele>
        <time>2015-01-22T10:54:16Z</time>
      </trkpt>
      <trkpt lat="43.15339" lon="0.94511">
        <ele>344.29</ele>
        <time>2015-01-22T10:54:35Z</time>
      </trkpt>
      <trkpt lat="43.15337" lon="0.94509">
        <ele>345.25</ele>
        <time>2015-01-22T10:54:39Z</time>
      </trkpt>
      <trkpt lat="43.15327" lon="0.94501">
        <ele>346.21</ele>
        <time>2015-01-22T10:54:51Z</time>
      </trkpt>
      <trkpt lat="43.15315" lon="0.94496">
        <ele>348.13</ele>
        <time>2015-01-22T10:55:04Z</time>
      </trkpt>
      <trkpt lat="43.15302" lon="0.94487">
        <ele>350.06</ele>
        <time>2015-01-22T10:55:19Z</time>
      </trkpt>
      <trkpt lat="43.1529" lon="0.94477">
        <ele>350.54</ele>
        <time>2015-01-22T10:55:32Z</time>
      </trkpt>
      <trkpt lat="43.15289" lon="0.94476">
        <ele>350.54</ele>
        <time>2015-01-22T10:55:33Z</time>
      </trkpt>
      <trkpt lat="43.15288" lon="0.94473">
        <ele>350.54</ele>
        <time>2015-01-22T10:55:35Z</time>
      </trkpt>
      <trkpt lat="43.15287" lon="0.94471">
        <ele>350.54</ele>
        <time>2015-01-22T10:55:36Z</time>
      </trkpt>
      <trkpt lat="43.15285" lon="0.94461">
        <ele>350.54</ele>
        <time>2015-01-22T10:55:50Z</time>
      </trkpt>
      <trkpt lat="43.15283" lon="0.94458">
        <ele>350.54</ele>
        <time>2015-01-22T10:56:14Z</time>
      </trkpt>
      <trkpt lat="43.15284" lon="0.94457">
        <ele>350.06</ele>
        <time>2015-01-22T10:56:50Z</time>
      </trkpt>
      <trkpt lat="43.15285" lon="0.94458">
        <ele>350.06</ele>
        <time>2015-01-22T10:57:19Z</time>
      </trkpt>
      <trkpt lat="43.15283" lon="0.94456">
        <ele>350.06</ele>
        <time>2015-01-22T10:57:41Z</time>
      </trkpt>
      <trkpt lat="43.15281" lon="0.94457">
        <ele>350.06</ele>
        <time>2015-01-22T10:58:00Z</time>
      </trkpt>
      <trkpt lat="43.15281" lon="0.94458">
        <ele>350.06</ele>
        <time>2015-01-22T10:58:26Z</time>
      </trkpt>
      <trkpt lat="43.15281" lon="0.94459">
        <ele>350.06</ele>
        <time>2015-01-22T10:58:54Z</time>
      </trkpt>
      <trkpt lat="43.15282" lon="0.94457">
        <ele>350.54</ele>
        <time>2015-01-22T10:59:12Z</time>
      </trkpt>
      <trkpt lat="43.15283" lon="0.94459">
        <ele>351.02</ele>
        <time>2015-01-22T10:59:32Z</time>
      </trkpt>
      <trkpt lat="43.15283" lon="0.94458">
        <ele>351.5</ele>
        <time>2015-01-22T11:00:00Z</time>
      </trkpt>
      <trkpt lat="43.15283" lon="0.94459">
        <ele>350.06</ele>
        <time>2015-01-22T11:00:05Z</time>
      </trkpt>
      <trkpt lat="43.15282" lon="0.94461">
        <ele>350.06</ele>
        <time>2015-01-22T11:00:39Z</time>
      </trkpt>
      <trkpt lat="43.15281" lon="0.9446">
        <ele>350.54</ele>
        <time>2015-01-22T11:01:04Z</time>
      </trkpt>
      <trkpt lat="43.15281" lon="0.94459">
        <ele>350.54</ele>
        <time>2015-01-22T11:01:33Z</time>
      </trkpt>
      <trkpt lat="43.15283" lon="0.94456">
        <ele>350.54</ele>
        <time>2015-01-22T11:01:56Z</time>
      </trkpt>
      <trkpt lat="43.15284" lon="0.94456">
        <ele>350.54</ele>
        <time>2015-01-22T11:02:24Z</time>
      </trkpt>
      <trkpt lat="43.15282" lon="0.94456">
        <ele>351.02</ele>
        <time>2015-01-22T11:02:52Z</time>
      </trkpt>
      <trkpt lat="43.1528" lon="0.9446">
        <ele>351.02</ele>
        <time>2015-01-22T11:03:16Z</time>
      </trkpt>
      <trkpt lat="43.15286" lon="0.94469">
        <ele>351.02</ele>
        <time>2015-01-22T11:03:34Z</time>
      </trkpt>
      <trkpt lat="43.15292" lon="0.94473">
        <ele>350.54</ele>
        <time>2015-01-22T11:03:48Z</time>
      </trkpt>
      <trkpt lat="43.15305" lon="0.94479">
        <ele>350.06</ele>
        <time>2015-01-22T11:04:06Z</time>
      </trkpt>
      <trkpt lat="43.15322" lon="0.94488">
        <ele>347.17</ele>
        <time>2015-01-22T11:04:24Z</time>
      </trkpt>
      <trkpt lat="43.15335" lon="0.94501">
        <ele>344.29</ele>
        <time>2015-01-22T11:04:42Z</time>
      </trkpt>
      <trkpt lat="43.15345" lon="0.9452">
        <ele>341.41</ele>
        <time>2015-01-22T11:05:01Z</time>
      </trkpt>
      <trkpt lat="43.15354" lon="0.94542">
        <ele>339.96</ele>
        <time>2015-01-22T11:05:17Z</time>
      </trkpt>
      <trkpt lat="43.15361" lon="0.94562">
        <ele>338.52</ele>
        <time>2015-01-22T11:05:34Z</time>
      </trkpt>
      <trkpt lat="43.15371" lon="0.94587">
        <ele>336.12</ele>
        <time>2015-01-22T11:05:51Z</time>
      </trkpt>
      <trkpt lat="43.15387" lon="0.94613">
        <ele>335.16</ele>
        <time>2015-01-22T11:06:11Z</time>
      </trkpt>
      <trkpt lat="43.15403" lon="0.94629">
        <ele>334.68</ele>
        <time>2015-01-22T11:06:27Z</time>
      </trkpt>
      <trkpt lat="43.15425" lon="0.94633">
        <ele>333.23</ele>
        <time>2015-01-22T11:06:44Z</time>
      </trkpt>
      <trkpt lat="43.15443" lon="0.94633">
        <ele>330.35</ele>
        <time>2015-01-22T11:07:00Z</time>
      </trkpt>
      <trkpt lat="43.15458" lon="0.9465">
        <ele>327.47</ele>
        <time>2015-01-22T11:07:16Z</time>
      </trkpt>
      <trkpt lat="43.15474" lon="0.9467">
        <ele>323.62</ele>
        <time>2015-01-22T11:07:34Z</time>
      </trkpt>
      <trkpt lat="43.15489" lon="0.94689">
        <ele>321.22</ele>
        <time>2015-01-22T11:07:51Z</time>
      </trkpt>
      <trkpt lat="43.15502" lon="0.94712">
        <ele>320.26</ele>
        <time>2015-01-22T11:08:09Z</time>
      </trkpt>
      <trkpt lat="43.15511" lon="0.94731">
        <ele>318.81</ele>
        <time>2015-01-22T11:08:20Z</time>
      </trkpt>
      <trkpt lat="43.15512" lon="0.94733">
        <ele>318.81</ele>
        <time>2015-01-22T11:08:21Z</time>
      </trkpt>
      <trkpt lat="43.15518" lon="0.94751">
        <ele>316.41</ele>
        <time>2015-01-22T11:08:40Z</time>
      </trkpt>
      <trkpt lat="43.15526" lon="0.94769">
        <ele>313.05</ele>
        <time>2015-01-22T11:08:57Z</time>
      </trkpt>
      <trkpt lat="43.15541" lon="0.94785">
        <ele>310.16</ele>
        <time>2015-01-22T11:09:12Z</time>
      </trkpt>
      <trkpt lat="43.15556" lon="0.94796">
        <ele>308.72</ele>
        <time>2015-01-22T11:09:28Z</time>
      </trkpt>
      <trkpt lat="43.15572" lon="0.94812">
        <ele>306.32</ele>
        <time>2015-01-22T11:09:45Z</time>
      </trkpt>
      <trkpt lat="43.15596" lon="0.94828">
        <ele>302.95</ele>
        <time>2015-01-22T11:10:03Z</time>
      </trkpt>
      <trkpt lat="43.15612" lon="0.94837">
        <ele>301.51</ele>
        <time>2015-01-22T11:10:21Z</time>
      </trkpt>
      <trkpt lat="43.15622" lon="0.94842">
        <ele>300.55</ele>
        <time>2015-01-22T11:10:30Z</time>
      </trkpt>
      <trkpt lat="43.1564" lon="0.94852">
        <ele>299.11</ele>
        <time>2015-01-22T11:10:47Z</time>
      </trkpt>
      <trkpt lat="43.15645" lon="0.94851">
        <ele>298.15</ele>
        <time>2015-01-22T11:10:58Z</time>
      </trkpt>
      <trkpt lat="43.15647" lon="0.94851">
        <ele>297.67</ele>
        <time>2015-01-22T11:11:01Z</time>
      </trkpt>
      <trkpt lat="43.15659" lon="0.94852">
        <ele>295.74</ele>
        <time>2015-01-22T11:11:15Z</time>
      </trkpt>
      <trkpt lat="43.15674" lon="0.94855">
        <ele>292.38</ele>
        <time>2015-01-22T11:11:30Z</time>
      </trkpt>
      <trkpt lat="43.15685" lon="0.94858">
        <ele>289.97</ele>
        <time>2015-01-22T11:11:42Z</time>
      </trkpt>
      <trkpt lat="43.15702" lon="0.94859">
        <ele>286.61</ele>
        <time>2015-01-22T11:11:56Z</time>
      </trkpt>
      <trkpt lat="43.15716" lon="0.94862">
        <ele>284.69</ele>
        <time>2015-01-22T11:12:10Z</time>
      </trkpt>
      <trkpt lat="43.15716" lon="0.94864">
        <ele>284.69</ele>
        <time>2015-01-22T11:12:11Z</time>
      </trkpt>
      <trkpt lat="43.15716" lon="0.94865">
        <ele>284.69</ele>
        <time>2015-01-22T11:12:12Z</time>
      </trkpt>
      <trkpt lat="43.15716" lon="0.94867">
        <ele>284.69</ele>
        <time>2015-01-22T11:12:13Z</time>
      </trkpt>
      <trkpt lat="43.15716" lon="0.94868">
        <ele>284.69</ele>
        <time>2015-01-22T11:12:14Z</time>
      </trkpt>
      <trkpt lat="43.15716" lon="0.94869">
        <ele>284.69</ele>
        <time>2015-01-22T11:12:15Z</time>
      </trkpt>
      <trkpt lat="43.15716" lon="0.94871">
        <ele>284.69</ele>
        <time>2015-01-22T11:12:16Z</time>
      </trkpt>
      <trkpt lat="43.15718" lon="0.94906">
        <ele>284.69</ele>
        <time>2015-01-22T11:12:35Z</time>
      </trkpt>
      <trkpt lat="43.15723" lon="0.94934">
        <ele>284.21</ele>
        <time>2015-01-22T11:12:52Z</time>
      </trkpt>
      <trkpt lat="43.15725" lon="0.94937">
        <ele>284.69</ele>
        <time>2015-01-22T11:13:12Z</time>
      </trkpt>
      <trkpt lat="43.15726" lon="0.94936">
        <ele>284.69</ele>
        <time>2015-01-22T11:13:41Z</time>
      </trkpt>
      <trkpt lat="43.15726" lon="0.94942">
        <ele>284.69</ele>
        <time>2015-01-22T11:13:58Z</time>
      </trkpt>
      <trkpt lat="43.15726" lon="0.94949">
        <ele>284.69</ele>
        <time>2015-01-22T11:14:13Z</time>
      </trkpt>
      <trkpt lat="43.15726" lon="0.94953">
        <ele>284.69</ele>
        <time>2015-01-22T11:14:15Z</time>
      </trkpt>
      <trkpt lat="43.15732" lon="0.9498">
        <ele>284.69</ele>
        <time>2015-01-22T11:14:34Z</time>
      </trkpt>
      <trkpt lat="43.15735" lon="0.95004">
        <ele>284.69</ele>
        <time>2015-01-22T11:14:52Z</time>
      </trkpt>
      <trkpt lat="43.15736" lon="0.95008">
        <ele>284.69</ele>
        <time>2015-01-22T11:14:55Z</time>
      </trkpt>
      <trkpt lat="43.15737" lon="0.9501">
        <ele>284.69</ele>
        <time>2015-01-22T11:14:56Z</time>
      </trkpt>
      <trkpt lat="43.15742" lon="0.95041">
        <ele>284.21</ele>
        <time>2015-01-22T11:15:14Z</time>
      </trkpt>
      <trkpt lat="43.15746" lon="0.95072">
        <ele>284.21</ele>
        <time>2015-01-22T11:15:35Z</time>
      </trkpt>
      <trkpt lat="43.1575" lon="0.95093">
        <ele>283.25</ele>
        <time>2015-01-22T11:15:54Z</time>
      </trkpt>
      <trkpt lat="43.15753" lon="0.95093">
        <ele>283.25</ele>
        <time>2015-01-22T11:15:57Z</time>
      </trkpt>
      <trkpt lat="43.15762" lon="0.95094">
        <ele>282.77</ele>
        <time>2015-01-22T11:16:14Z</time>
      </trkpt>
      <trkpt lat="43.15768" lon="0.95095">
        <ele>282.77</ele>
        <time>2015-01-22T11:16:27Z</time>
      </trkpt>
      <trkpt lat="43.15777" lon="0.95099">
        <ele>282.28</ele>
        <time>2015-01-22T11:16:40Z</time>
      </trkpt>
      <trkpt lat="43.1579" lon="0.95105">
        <ele>280.84</ele>
        <time>2015-01-22T11:16:55Z</time>
      </trkpt>
      <trkpt lat="43.15796" lon="0.95127">
        <ele>278.92</ele>
        <time>2015-01-22T11:17:14Z</time>
      </trkpt>
      <trkpt lat="43.15793" lon="0.95136">
        <ele>278.44</ele>
        <time>2015-01-22T11:17:20Z</time>
      </trkpt>
      <trkpt lat="43.15786" lon="0.95151">
        <ele>277</ele>
        <time>2015-01-22T11:17:36Z</time>
      </trkpt>
      <trkpt lat="43.15786" lon="0.95152">
        <ele>276.04</ele>
        <time>2015-01-22T11:17:42Z</time>
      </trkpt>
    </trkseg>
  </trk>
</gpx>